<?xml version="1.0" encoding="UTF-8" standalone="no" ?>
<gpx xmlns="http://www.topografix.com/GPX/1/1" xmlns:xsi="http://www.w3.org/2001/XMLSchema-instance" xsi:schemaLocation="http://www.topografix.com/GPX/1/1 http://www.topografix.com/GPX/1/1/gpx.xsd" version="1.1" creator="VisuGPX - https://www.visugpx.com">
  <metadata>
    <name>Petite sortie pour Ténébra accompagnant Babyboy</name>
    <desc><![CDATA[Un Babyboy qui passe les troncs sans se poser de questions, mais de larges flaques c\'est derrière Ténébra !
Trot, galop, impec pour les deux ! Comme on avait une heure à respecter, on a pas mal trotté (et raccourci le tour)]]></desc>
  </metadata>
  <trk>
    <name><![CDATA[Saint-Léger-en-Yvelines Autre]]></name>
    <trkseg>
      <trkpt lat="48.7065" lon="1.75608">
        <ele>172.4</ele>
        <time>2015-04-05T10:11:34.000Z</time>
      </trkpt>
      <trkpt lat="48.70649" lon="1.7561">
        <ele>172.4</ele>
        <time>2015-04-05T10:11:35.000Z</time>
      </trkpt>
      <trkpt lat="48.70653" lon="1.75602">
        <ele>172.5</ele>
        <time>2015-04-05T10:11:37.000Z</time>
      </trkpt>
      <trkpt lat="48.70646" lon="1.75625">
        <ele>172.5</ele>
        <time>2015-04-05T10:11:44.000Z</time>
      </trkpt>
      <trkpt lat="48.70637" lon="1.75659">
        <ele>173</ele>
        <time>2015-04-05T10:11:50.000Z</time>
      </trkpt>
      <trkpt lat="48.70636" lon="1.75662">
        <ele>173</ele>
        <time>2015-04-05T10:11:51.000Z</time>
      </trkpt>
      <trkpt lat="48.70631" lon="1.75664">
        <ele>173</ele>
        <time>2015-04-05T10:11:55.000Z</time>
      </trkpt>
      <trkpt lat="48.70626" lon="1.7566">
        <ele>173</ele>
        <time>2015-04-05T10:12:01.000Z</time>
      </trkpt>
      <trkpt lat="48.70625" lon="1.75659">
        <ele>173</ele>
        <time>2015-04-05T10:12:02.000Z</time>
      </trkpt>
      <trkpt lat="48.70617" lon="1.7565">
        <ele>173</ele>
        <time>2015-04-05T10:12:09.000Z</time>
      </trkpt>
      <trkpt lat="48.70611" lon="1.75636">
        <ele>172.9</ele>
        <time>2015-04-05T10:12:15.000Z</time>
      </trkpt>
      <trkpt lat="48.70608" lon="1.75629">
        <ele>172.7</ele>
        <time>2015-04-05T10:12:19.000Z</time>
      </trkpt>
      <trkpt lat="48.70601" lon="1.7562">
        <ele>172.6</ele>
        <time>2015-04-05T10:12:25.000Z</time>
      </trkpt>
      <trkpt lat="48.70595" lon="1.75614">
        <ele>172.6</ele>
        <time>2015-04-05T10:12:31.000Z</time>
      </trkpt>
      <trkpt lat="48.70589" lon="1.75607">
        <ele>172.8</ele>
        <time>2015-04-05T10:12:36.000Z</time>
      </trkpt>
      <trkpt lat="48.70588" lon="1.75606">
        <ele>172.8</ele>
        <time>2015-04-05T10:12:37.000Z</time>
      </trkpt>
      <trkpt lat="48.70583" lon="1.75599">
        <ele>173</ele>
        <time>2015-04-05T10:12:43.000Z</time>
      </trkpt>
      <trkpt lat="48.70578" lon="1.75599">
        <ele>173</ele>
        <time>2015-04-05T10:12:47.000Z</time>
      </trkpt>
      <trkpt lat="48.70571" lon="1.7559">
        <ele>173</ele>
        <time>2015-04-05T10:12:53.000Z</time>
      </trkpt>
      <trkpt lat="48.70565" lon="1.75587">
        <ele>173</ele>
        <time>2015-04-05T10:12:58.000Z</time>
      </trkpt>
      <trkpt lat="48.70564" lon="1.75586">
        <ele>173</ele>
        <time>2015-04-05T10:12:59.000Z</time>
      </trkpt>
      <trkpt lat="48.70562" lon="1.75585">
        <ele>173</ele>
        <time>2015-04-05T10:13:01.000Z</time>
      </trkpt>
      <trkpt lat="48.70555" lon="1.75576">
        <ele>173</ele>
        <time>2015-04-05T10:13:08.000Z</time>
      </trkpt>
      <trkpt lat="48.70552" lon="1.75574">
        <ele>173</ele>
        <time>2015-04-05T10:13:11.000Z</time>
      </trkpt>
      <trkpt lat="48.70547" lon="1.7556">
        <ele>173</ele>
        <time>2015-04-05T10:13:17.000Z</time>
      </trkpt>
      <trkpt lat="48.7054" lon="1.75557">
        <ele>173</ele>
        <time>2015-04-05T10:13:21.000Z</time>
      </trkpt>
      <trkpt lat="48.70538" lon="1.75553">
        <ele>173</ele>
        <time>2015-04-05T10:13:26.000Z</time>
      </trkpt>
      <trkpt lat="48.70539" lon="1.75552">
        <ele>173</ele>
        <time>2015-04-05T10:13:27.000Z</time>
      </trkpt>
      <trkpt lat="48.70541" lon="1.75538">
        <ele>173</ele>
        <time>2015-04-05T10:13:35.000Z</time>
      </trkpt>
      <trkpt lat="48.70541" lon="1.75534">
        <ele>173</ele>
        <time>2015-04-05T10:13:37.000Z</time>
      </trkpt>
      <trkpt lat="48.70537" lon="1.75527">
        <ele>173</ele>
        <time>2015-04-05T10:13:45.000Z</time>
      </trkpt>
      <trkpt lat="48.70542" lon="1.7552">
        <ele>173</ele>
        <time>2015-04-05T10:13:51.000Z</time>
      </trkpt>
      <trkpt lat="48.70535" lon="1.75526">
        <ele>173</ele>
        <time>2015-04-05T10:13:56.000Z</time>
      </trkpt>
      <trkpt lat="48.70528" lon="1.75525">
        <ele>173</ele>
        <time>2015-04-05T10:14:01.000Z</time>
      </trkpt>
      <trkpt lat="48.70525" lon="1.75523">
        <ele>173</ele>
        <time>2015-04-05T10:14:05.000Z</time>
      </trkpt>
      <trkpt lat="48.70517" lon="1.75513">
        <ele>173</ele>
        <time>2015-04-05T10:14:13.000Z</time>
      </trkpt>
      <trkpt lat="48.7051" lon="1.75507">
        <ele>173</ele>
        <time>2015-04-05T10:14:19.000Z</time>
      </trkpt>
      <trkpt lat="48.70502" lon="1.75499">
        <ele>173</ele>
        <time>2015-04-05T10:14:26.000Z</time>
      </trkpt>
      <trkpt lat="48.70498" lon="1.75493">
        <ele>173.2</ele>
        <time>2015-04-05T10:14:31.000Z</time>
      </trkpt>
      <trkpt lat="48.70492" lon="1.75489">
        <ele>173.4</ele>
        <time>2015-04-05T10:14:36.000Z</time>
      </trkpt>
      <trkpt lat="48.70488" lon="1.75484">
        <ele>173.6</ele>
        <time>2015-04-05T10:14:40.000Z</time>
      </trkpt>
      <trkpt lat="48.70484" lon="1.75479">
        <ele>173.8</ele>
        <time>2015-04-05T10:14:44.000Z</time>
      </trkpt>
      <trkpt lat="48.70482" lon="1.75475">
        <ele>173.9</ele>
        <time>2015-04-05T10:14:46.000Z</time>
      </trkpt>
      <trkpt lat="48.70475" lon="1.75472">
        <ele>174</ele>
        <time>2015-04-05T10:14:52.000Z</time>
      </trkpt>
      <trkpt lat="48.70469" lon="1.75466">
        <ele>173.9</ele>
        <time>2015-04-05T10:14:57.000Z</time>
      </trkpt>
      <trkpt lat="48.70465" lon="1.75463">
        <ele>173.7</ele>
        <time>2015-04-05T10:15:02.000Z</time>
      </trkpt>
      <trkpt lat="48.70459" lon="1.75457">
        <ele>173.5</ele>
        <time>2015-04-05T10:15:07.000Z</time>
      </trkpt>
      <trkpt lat="48.70454" lon="1.75455">
        <ele>173.4</ele>
        <time>2015-04-05T10:15:11.000Z</time>
      </trkpt>
      <trkpt lat="48.70452" lon="1.75454">
        <ele>173.3</ele>
        <time>2015-04-05T10:15:13.000Z</time>
      </trkpt>
      <trkpt lat="48.70445" lon="1.75448">
        <ele>173</ele>
        <time>2015-04-05T10:15:20.000Z</time>
      </trkpt>
      <trkpt lat="48.70439" lon="1.75443">
        <ele>173</ele>
        <time>2015-04-05T10:15:25.000Z</time>
      </trkpt>
      <trkpt lat="48.70438" lon="1.75443">
        <ele>173</ele>
        <time>2015-04-05T10:15:26.000Z</time>
      </trkpt>
      <trkpt lat="48.70432" lon="1.75438">
        <ele>173.1</ele>
        <time>2015-04-05T10:15:32.000Z</time>
      </trkpt>
      <trkpt lat="48.70424" lon="1.75437">
        <ele>173.1</ele>
        <time>2015-04-05T10:15:37.000Z</time>
      </trkpt>
      <trkpt lat="48.7042" lon="1.75433">
        <ele>173.1</ele>
        <time>2015-04-05T10:15:40.000Z</time>
      </trkpt>
      <trkpt lat="48.70416" lon="1.75429">
        <ele>173</ele>
        <time>2015-04-05T10:15:45.000Z</time>
      </trkpt>
      <trkpt lat="48.70414" lon="1.75429">
        <ele>173</ele>
        <time>2015-04-05T10:15:46.000Z</time>
      </trkpt>
      <trkpt lat="48.70407" lon="1.75425">
        <ele>173</ele>
        <time>2015-04-05T10:15:52.000Z</time>
      </trkpt>
      <trkpt lat="48.70402" lon="1.75422">
        <ele>173</ele>
        <time>2015-04-05T10:15:56.000Z</time>
      </trkpt>
      <trkpt lat="48.70397" lon="1.75419">
        <ele>173</ele>
        <time>2015-04-05T10:16:01.000Z</time>
      </trkpt>
      <trkpt lat="48.70398" lon="1.7542">
        <ele>173</ele>
        <time>2015-04-05T10:16:03.000Z</time>
      </trkpt>
      <trkpt lat="48.70391" lon="1.75413">
        <ele>173</ele>
        <time>2015-04-05T10:16:34.000Z</time>
      </trkpt>
      <trkpt lat="48.70392" lon="1.75408">
        <ele>173</ele>
        <time>2015-04-05T10:16:36.000Z</time>
      </trkpt>
      <trkpt lat="48.70388" lon="1.7541">
        <ele>173</ele>
        <time>2015-04-05T10:16:41.000Z</time>
      </trkpt>
      <trkpt lat="48.70381" lon="1.75413">
        <ele>173</ele>
        <time>2015-04-05T10:16:47.000Z</time>
      </trkpt>
      <trkpt lat="48.70376" lon="1.75407">
        <ele>173</ele>
        <time>2015-04-05T10:16:52.000Z</time>
      </trkpt>
      <trkpt lat="48.70372" lon="1.75403">
        <ele>173</ele>
        <time>2015-04-05T10:16:55.000Z</time>
      </trkpt>
      <trkpt lat="48.70364" lon="1.75398">
        <ele>173</ele>
        <time>2015-04-05T10:17:02.000Z</time>
      </trkpt>
      <trkpt lat="48.70354" lon="1.75391">
        <ele>173</ele>
        <time>2015-04-05T10:17:08.000Z</time>
      </trkpt>
      <trkpt lat="48.7035" lon="1.75383">
        <ele>172.9</ele>
        <time>2015-04-05T10:17:13.000Z</time>
      </trkpt>
      <trkpt lat="48.70346" lon="1.75377">
        <ele>172.8</ele>
        <time>2015-04-05T10:17:18.000Z</time>
      </trkpt>
      <trkpt lat="48.70342" lon="1.7537">
        <ele>172.5</ele>
        <time>2015-04-05T10:17:23.000Z</time>
      </trkpt>
      <trkpt lat="48.70338" lon="1.75366">
        <ele>172.3</ele>
        <time>2015-04-05T10:17:28.000Z</time>
      </trkpt>
      <trkpt lat="48.70334" lon="1.75365">
        <ele>172.1</ele>
        <time>2015-04-05T10:17:31.000Z</time>
      </trkpt>
      <trkpt lat="48.70329" lon="1.75362">
        <ele>172</ele>
        <time>2015-04-05T10:17:36.000Z</time>
      </trkpt>
      <trkpt lat="48.70326" lon="1.75359">
        <ele>172</ele>
        <time>2015-04-05T10:17:39.000Z</time>
      </trkpt>
      <trkpt lat="48.70321" lon="1.75353">
        <ele>171.9</ele>
        <time>2015-04-05T10:17:43.000Z</time>
      </trkpt>
      <trkpt lat="48.70312" lon="1.75345">
        <ele>171.6</ele>
        <time>2015-04-05T10:17:51.000Z</time>
      </trkpt>
      <trkpt lat="48.70311" lon="1.75343">
        <ele>171.5</ele>
        <time>2015-04-05T10:17:52.000Z</time>
      </trkpt>
      <trkpt lat="48.70308" lon="1.75334">
        <ele>171.1</ele>
        <time>2015-04-05T10:17:58.000Z</time>
      </trkpt>
      <trkpt lat="48.70306" lon="1.75332">
        <ele>171</ele>
        <time>2015-04-05T10:17:59.000Z</time>
      </trkpt>
      <trkpt lat="48.70302" lon="1.75325">
        <ele>170.7</ele>
        <time>2015-04-05T10:18:03.000Z</time>
      </trkpt>
      <trkpt lat="48.70303" lon="1.75325">
        <ele>170.7</ele>
        <time>2015-04-05T10:18:08.000Z</time>
      </trkpt>
      <trkpt lat="48.70307" lon="1.75307">
        <ele>170.1</ele>
        <time>2015-04-05T10:19:11.000Z</time>
      </trkpt>
      <trkpt lat="48.70304" lon="1.75305">
        <ele>170</ele>
        <time>2015-04-05T10:19:12.000Z</time>
      </trkpt>
      <trkpt lat="48.70296" lon="1.75297">
        <ele>170</ele>
        <time>2015-04-05T10:19:17.000Z</time>
      </trkpt>
      <trkpt lat="48.70287" lon="1.7529">
        <ele>170</ele>
        <time>2015-04-05T10:19:25.000Z</time>
      </trkpt>
      <trkpt lat="48.70286" lon="1.75289">
        <ele>170</ele>
        <time>2015-04-05T10:19:26.000Z</time>
      </trkpt>
      <trkpt lat="48.70277" lon="1.75283">
        <ele>170</ele>
        <time>2015-04-05T10:19:33.000Z</time>
      </trkpt>
      <trkpt lat="48.70273" lon="1.7528">
        <ele>170</ele>
        <time>2015-04-05T10:19:36.000Z</time>
      </trkpt>
      <trkpt lat="48.70263" lon="1.75272">
        <ele>169.8</ele>
        <time>2015-04-05T10:19:43.000Z</time>
      </trkpt>
      <trkpt lat="48.70256" lon="1.75269">
        <ele>169.7</ele>
        <time>2015-04-05T10:19:49.000Z</time>
      </trkpt>
      <trkpt lat="48.70255" lon="1.75268">
        <ele>169.6</ele>
        <time>2015-04-05T10:19:50.000Z</time>
      </trkpt>
      <trkpt lat="48.70249" lon="1.7526">
        <ele>169.4</ele>
        <time>2015-04-05T10:19:56.000Z</time>
      </trkpt>
      <trkpt lat="48.70245" lon="1.75257">
        <ele>169.2</ele>
        <time>2015-04-05T10:19:59.000Z</time>
      </trkpt>
      <trkpt lat="48.70234" lon="1.75249">
        <ele>169</ele>
        <time>2015-04-05T10:20:06.000Z</time>
      </trkpt>
      <trkpt lat="48.70226" lon="1.7525">
        <ele>169</ele>
        <time>2015-04-05T10:20:12.000Z</time>
      </trkpt>
      <trkpt lat="48.70217" lon="1.75249">
        <ele>169</ele>
        <time>2015-04-05T10:20:19.000Z</time>
      </trkpt>
      <trkpt lat="48.70213" lon="1.75248">
        <ele>169</ele>
        <time>2015-04-05T10:20:22.000Z</time>
      </trkpt>
      <trkpt lat="48.70205" lon="1.75249">
        <ele>169</ele>
        <time>2015-04-05T10:20:28.000Z</time>
      </trkpt>
      <trkpt lat="48.70204" lon="1.7525">
        <ele>169</ele>
        <time>2015-04-05T10:20:29.000Z</time>
      </trkpt>
      <trkpt lat="48.70193" lon="1.75257">
        <ele>169</ele>
        <time>2015-04-05T10:20:37.000Z</time>
      </trkpt>
      <trkpt lat="48.70184" lon="1.75259">
        <ele>169</ele>
        <time>2015-04-05T10:20:44.000Z</time>
      </trkpt>
      <trkpt lat="48.70182" lon="1.75259">
        <ele>169</ele>
        <time>2015-04-05T10:20:45.000Z</time>
      </trkpt>
      <trkpt lat="48.70178" lon="1.75262">
        <ele>169</ele>
        <time>2015-04-05T10:20:49.000Z</time>
      </trkpt>
      <trkpt lat="48.70174" lon="1.75263">
        <ele>169</ele>
        <time>2015-04-05T10:20:52.000Z</time>
      </trkpt>
      <trkpt lat="48.70166" lon="1.75265">
        <ele>169</ele>
        <time>2015-04-05T10:20:59.000Z</time>
      </trkpt>
      <trkpt lat="48.70158" lon="1.7527">
        <ele>168.7</ele>
        <time>2015-04-05T10:21:05.000Z</time>
      </trkpt>
      <trkpt lat="48.70149" lon="1.75273">
        <ele>168.4</ele>
        <time>2015-04-05T10:21:13.000Z</time>
      </trkpt>
      <trkpt lat="48.70143" lon="1.75277">
        <ele>168.1</ele>
        <time>2015-04-05T10:21:19.000Z</time>
      </trkpt>
      <trkpt lat="48.70132" lon="1.75284">
        <ele>167.7</ele>
        <time>2015-04-05T10:21:26.000Z</time>
      </trkpt>
      <trkpt lat="48.70123" lon="1.75288">
        <ele>167.4</ele>
        <time>2015-04-05T10:21:31.000Z</time>
      </trkpt>
      <trkpt lat="48.70112" lon="1.75291">
        <ele>167</ele>
        <time>2015-04-05T10:21:38.000Z</time>
      </trkpt>
      <trkpt lat="48.70103" lon="1.75296">
        <ele>166.7</ele>
        <time>2015-04-05T10:21:44.000Z</time>
      </trkpt>
      <trkpt lat="48.70094" lon="1.75303">
        <ele>166.4</ele>
        <time>2015-04-05T10:21:50.000Z</time>
      </trkpt>
      <trkpt lat="48.70084" lon="1.75308">
        <ele>166</ele>
        <time>2015-04-05T10:21:56.000Z</time>
      </trkpt>
      <trkpt lat="48.70072" lon="1.75314">
        <ele>165.3</ele>
        <time>2015-04-05T10:22:04.000Z</time>
      </trkpt>
      <trkpt lat="48.70066" lon="1.75316">
        <ele>165</ele>
        <time>2015-04-05T10:22:08.000Z</time>
      </trkpt>
      <trkpt lat="48.70061" lon="1.75318">
        <ele>164.7</ele>
        <time>2015-04-05T10:22:12.000Z</time>
      </trkpt>
      <trkpt lat="48.70057" lon="1.75318">
        <ele>164.6</ele>
        <time>2015-04-05T10:22:15.000Z</time>
      </trkpt>
      <trkpt lat="48.70049" lon="1.75325">
        <ele>164.1</ele>
        <time>2015-04-05T10:22:22.000Z</time>
      </trkpt>
      <trkpt lat="48.70039" lon="1.75331">
        <ele>163.5</ele>
        <time>2015-04-05T10:22:29.000Z</time>
      </trkpt>
      <trkpt lat="48.70027" lon="1.75339">
        <ele>162.8</ele>
        <time>2015-04-05T10:22:37.000Z</time>
      </trkpt>
      <trkpt lat="48.70017" lon="1.75344">
        <ele>162.6</ele>
        <time>2015-04-05T10:22:44.000Z</time>
      </trkpt>
      <trkpt lat="48.7001" lon="1.75343">
        <ele>162.7</ele>
        <time>2015-04-05T10:22:49.000Z</time>
      </trkpt>
      <trkpt lat="48.70005" lon="1.75344">
        <ele>162.6</ele>
        <time>2015-04-05T10:22:53.000Z</time>
      </trkpt>
      <trkpt lat="48.69998" lon="1.75343">
        <ele>162.7</ele>
        <time>2015-04-05T10:22:58.000Z</time>
      </trkpt>
      <trkpt lat="48.6999" lon="1.75344">
        <ele>162.6</ele>
        <time>2015-04-05T10:23:04.000Z</time>
      </trkpt>
      <trkpt lat="48.69985" lon="1.75349">
        <ele>162.4</ele>
        <time>2015-04-05T10:23:08.000Z</time>
      </trkpt>
      <trkpt lat="48.69974" lon="1.7536">
        <ele>162</ele>
        <time>2015-04-05T10:23:17.000Z</time>
      </trkpt>
      <trkpt lat="48.69965" lon="1.75362">
        <ele>162.2</ele>
        <time>2015-04-05T10:23:24.000Z</time>
      </trkpt>
      <trkpt lat="48.69962" lon="1.75365">
        <ele>162.2</ele>
        <time>2015-04-05T10:23:26.000Z</time>
      </trkpt>
      <trkpt lat="48.69947" lon="1.75374">
        <ele>162.5</ele>
        <time>2015-04-05T10:23:36.000Z</time>
      </trkpt>
      <trkpt lat="48.69936" lon="1.75379">
        <ele>162.7</ele>
        <time>2015-04-05T10:23:43.000Z</time>
      </trkpt>
      <trkpt lat="48.69928" lon="1.75381">
        <ele>162.9</ele>
        <time>2015-04-05T10:23:49.000Z</time>
      </trkpt>
      <trkpt lat="48.69918" lon="1.75384">
        <ele>163.1</ele>
        <time>2015-04-05T10:23:56.000Z</time>
      </trkpt>
      <trkpt lat="48.6991" lon="1.75388">
        <ele>163.3</ele>
        <time>2015-04-05T10:24:02.000Z</time>
      </trkpt>
      <trkpt lat="48.699" lon="1.75391">
        <ele>163.6</ele>
        <time>2015-04-05T10:24:10.000Z</time>
      </trkpt>
      <trkpt lat="48.69889" lon="1.75397">
        <ele>163.7</ele>
        <time>2015-04-05T10:24:17.000Z</time>
      </trkpt>
      <trkpt lat="48.69877" lon="1.75404">
        <ele>163.3</ele>
        <time>2015-04-05T10:24:26.000Z</time>
      </trkpt>
      <trkpt lat="48.69869" lon="1.75407">
        <ele>163.1</ele>
        <time>2015-04-05T10:24:32.000Z</time>
      </trkpt>
      <trkpt lat="48.69868" lon="1.75409">
        <ele>163.1</ele>
        <time>2015-04-05T10:24:33.000Z</time>
      </trkpt>
      <trkpt lat="48.69858" lon="1.75413">
        <ele>163</ele>
        <time>2015-04-05T10:24:40.000Z</time>
      </trkpt>
      <trkpt lat="48.69857" lon="1.75414">
        <ele>163</ele>
        <time>2015-04-05T10:24:41.000Z</time>
      </trkpt>
      <trkpt lat="48.69853" lon="1.75417">
        <ele>163</ele>
        <time>2015-04-05T10:24:44.000Z</time>
      </trkpt>
      <trkpt lat="48.69842" lon="1.75424">
        <ele>162.8</ele>
        <time>2015-04-05T10:24:52.000Z</time>
      </trkpt>
      <trkpt lat="48.69834" lon="1.75428">
        <ele>162.6</ele>
        <time>2015-04-05T10:24:57.000Z</time>
      </trkpt>
      <trkpt lat="48.6983" lon="1.75429">
        <ele>162.5</ele>
        <time>2015-04-05T10:25:00.000Z</time>
      </trkpt>
      <trkpt lat="48.69821" lon="1.75432">
        <ele>162</ele>
        <time>2015-04-05T10:25:07.000Z</time>
      </trkpt>
      <trkpt lat="48.69812" lon="1.75435">
        <ele>161.6</ele>
        <time>2015-04-05T10:25:13.000Z</time>
      </trkpt>
      <trkpt lat="48.69804" lon="1.7544">
        <ele>161.1</ele>
        <time>2015-04-05T10:25:19.000Z</time>
      </trkpt>
      <trkpt lat="48.69801" lon="1.75441">
        <ele>161.1</ele>
        <time>2015-04-05T10:25:21.000Z</time>
      </trkpt>
      <trkpt lat="48.69791" lon="1.75446">
        <ele>161</ele>
        <time>2015-04-05T10:25:29.000Z</time>
      </trkpt>
      <trkpt lat="48.69781" lon="1.75455">
        <ele>160.7</ele>
        <time>2015-04-05T10:25:35.000Z</time>
      </trkpt>
      <trkpt lat="48.69778" lon="1.75457">
        <ele>160.5</ele>
        <time>2015-04-05T10:25:37.000Z</time>
      </trkpt>
      <trkpt lat="48.6977" lon="1.7546">
        <ele>160.3</ele>
        <time>2015-04-05T10:25:43.000Z</time>
      </trkpt>
      <trkpt lat="48.69767" lon="1.75461">
        <ele>160.3</ele>
        <time>2015-04-05T10:25:45.000Z</time>
      </trkpt>
      <trkpt lat="48.69757" lon="1.75463">
        <ele>160.1</ele>
        <time>2015-04-05T10:25:51.000Z</time>
      </trkpt>
      <trkpt lat="48.69747" lon="1.75468">
        <ele>159.9</ele>
        <time>2015-04-05T10:25:59.000Z</time>
      </trkpt>
      <trkpt lat="48.69741" lon="1.75471">
        <ele>159.7</ele>
        <time>2015-04-05T10:26:03.000Z</time>
      </trkpt>
      <trkpt lat="48.69729" lon="1.75476">
        <ele>159.2</ele>
        <time>2015-04-05T10:26:11.000Z</time>
      </trkpt>
      <trkpt lat="48.69721" lon="1.75479">
        <ele>159</ele>
        <time>2015-04-05T10:26:16.000Z</time>
      </trkpt>
      <trkpt lat="48.69718" lon="1.7548">
        <ele>159</ele>
        <time>2015-04-05T10:26:18.000Z</time>
      </trkpt>
      <trkpt lat="48.69708" lon="1.75482">
        <ele>158.8</ele>
        <time>2015-04-05T10:26:25.000Z</time>
      </trkpt>
      <trkpt lat="48.69703" lon="1.75483">
        <ele>158.7</ele>
        <time>2015-04-05T10:26:29.000Z</time>
      </trkpt>
      <trkpt lat="48.69691" lon="1.75488">
        <ele>158.3</ele>
        <time>2015-04-05T10:26:37.000Z</time>
      </trkpt>
      <trkpt lat="48.69681" lon="1.75494">
        <ele>157.7</ele>
        <time>2015-04-05T10:26:43.000Z</time>
      </trkpt>
      <trkpt lat="48.6967" lon="1.755">
        <ele>157.1</ele>
        <time>2015-04-05T10:26:48.000Z</time>
      </trkpt>
      <trkpt lat="48.69655" lon="1.75506">
        <ele>156.9</ele>
        <time>2015-04-05T10:26:53.000Z</time>
      </trkpt>
      <trkpt lat="48.69635" lon="1.75515">
        <ele>156.3</ele>
        <time>2015-04-05T10:26:59.000Z</time>
      </trkpt>
      <trkpt lat="48.69615" lon="1.75523">
        <ele>155.3</ele>
        <time>2015-04-05T10:27:05.000Z</time>
      </trkpt>
      <trkpt lat="48.69597" lon="1.75532">
        <ele>154.9</ele>
        <time>2015-04-05T10:27:10.000Z</time>
      </trkpt>
      <trkpt lat="48.69584" lon="1.75541">
        <ele>154.5</ele>
        <time>2015-04-05T10:27:14.000Z</time>
      </trkpt>
      <trkpt lat="48.69567" lon="1.75544">
        <ele>154.2</ele>
        <time>2015-04-05T10:27:19.000Z</time>
      </trkpt>
      <trkpt lat="48.69557" lon="1.75521">
        <ele>154.3</ele>
        <time>2015-04-05T10:27:24.000Z</time>
      </trkpt>
      <trkpt lat="48.69551" lon="1.75493">
        <ele>154.9</ele>
        <time>2015-04-05T10:27:29.000Z</time>
      </trkpt>
      <trkpt lat="48.69546" lon="1.75463">
        <ele>155.2</ele>
        <time>2015-04-05T10:27:34.000Z</time>
      </trkpt>
      <trkpt lat="48.69545" lon="1.75456">
        <ele>155.4</ele>
        <time>2015-04-05T10:27:35.000Z</time>
      </trkpt>
      <trkpt lat="48.69535" lon="1.75421">
        <ele>155.3</ele>
        <time>2015-04-05T10:27:40.000Z</time>
      </trkpt>
      <trkpt lat="48.69525" lon="1.7539">
        <ele>155.9</ele>
        <time>2015-04-05T10:27:44.000Z</time>
      </trkpt>
      <trkpt lat="48.69514" lon="1.7535">
        <ele>155.7</ele>
        <time>2015-04-05T10:27:49.000Z</time>
      </trkpt>
      <trkpt lat="48.69509" lon="1.75329">
        <ele>156.1</ele>
        <time>2015-04-05T10:27:52.000Z</time>
      </trkpt>
      <trkpt lat="48.69503" lon="1.7531">
        <ele>156.1</ele>
        <time>2015-04-05T10:27:55.000Z</time>
      </trkpt>
      <trkpt lat="48.69495" lon="1.7528">
        <ele>156</ele>
        <time>2015-04-05T10:28:01.000Z</time>
      </trkpt>
      <trkpt lat="48.69488" lon="1.7525">
        <ele>157</ele>
        <time>2015-04-05T10:28:07.000Z</time>
      </trkpt>
      <trkpt lat="48.6948" lon="1.75222">
        <ele>157.3</ele>
        <time>2015-04-05T10:28:12.000Z</time>
      </trkpt>
      <trkpt lat="48.69471" lon="1.75189">
        <ele>158.2</ele>
        <time>2015-04-05T10:28:18.000Z</time>
      </trkpt>
      <trkpt lat="48.69463" lon="1.75156">
        <ele>159.5</ele>
        <time>2015-04-05T10:28:24.000Z</time>
      </trkpt>
      <trkpt lat="48.69457" lon="1.75126">
        <ele>161.5</ele>
        <time>2015-04-05T10:28:30.000Z</time>
      </trkpt>
      <trkpt lat="48.6945" lon="1.75095">
        <ele>163.4</ele>
        <time>2015-04-05T10:28:36.000Z</time>
      </trkpt>
      <trkpt lat="48.69438" lon="1.75058">
        <ele>164.2</ele>
        <time>2015-04-05T10:28:43.000Z</time>
      </trkpt>
      <trkpt lat="48.69432" lon="1.75031">
        <ele>164.9</ele>
        <time>2015-04-05T10:28:49.000Z</time>
      </trkpt>
      <trkpt lat="48.69425" lon="1.7501">
        <ele>164.6</ele>
        <time>2015-04-05T10:28:56.000Z</time>
      </trkpt>
      <trkpt lat="48.6942" lon="1.74994">
        <ele>163.9</ele>
        <time>2015-04-05T10:29:02.000Z</time>
      </trkpt>
      <trkpt lat="48.69413" lon="1.74974">
        <ele>162.7</ele>
        <time>2015-04-05T10:29:11.000Z</time>
      </trkpt>
      <trkpt lat="48.69411" lon="1.74968">
        <ele>162.2</ele>
        <time>2015-04-05T10:29:14.000Z</time>
      </trkpt>
      <trkpt lat="48.69407" lon="1.74955">
        <ele>160.9</ele>
        <time>2015-04-05T10:29:19.000Z</time>
      </trkpt>
      <trkpt lat="48.69403" lon="1.74945">
        <ele>159.6</ele>
        <time>2015-04-05T10:29:24.000Z</time>
      </trkpt>
      <trkpt lat="48.69402" lon="1.74943">
        <ele>159.4</ele>
        <time>2015-04-05T10:29:25.000Z</time>
      </trkpt>
      <trkpt lat="48.69401" lon="1.74927">
        <ele>158.5</ele>
        <time>2015-04-05T10:29:32.000Z</time>
      </trkpt>
      <trkpt lat="48.69401" lon="1.74925">
        <ele>158.4</ele>
        <time>2015-04-05T10:29:33.000Z</time>
      </trkpt>
      <trkpt lat="48.69399" lon="1.74918">
        <ele>157.9</ele>
        <time>2015-04-05T10:29:37.000Z</time>
      </trkpt>
      <trkpt lat="48.69396" lon="1.74905">
        <ele>156.8</ele>
        <time>2015-04-05T10:29:43.000Z</time>
      </trkpt>
      <trkpt lat="48.69395" lon="1.749">
        <ele>156.5</ele>
        <time>2015-04-05T10:29:45.000Z</time>
      </trkpt>
      <trkpt lat="48.69392" lon="1.74894">
        <ele>155.7</ele>
        <time>2015-04-05T10:29:49.000Z</time>
      </trkpt>
      <trkpt lat="48.69391" lon="1.74892">
        <ele>155.5</ele>
        <time>2015-04-05T10:29:53.000Z</time>
      </trkpt>
      <trkpt lat="48.69389" lon="1.74883">
        <ele>154.8</ele>
        <time>2015-04-05T10:30:01.000Z</time>
      </trkpt>
      <trkpt lat="48.69389" lon="1.74874">
        <ele>154.5</ele>
        <time>2015-04-05T10:30:04.000Z</time>
      </trkpt>
      <trkpt lat="48.69384" lon="1.74862">
        <ele>154</ele>
        <time>2015-04-05T10:30:10.000Z</time>
      </trkpt>
      <trkpt lat="48.69383" lon="1.7486">
        <ele>154</ele>
        <time>2015-04-05T10:30:11.000Z</time>
      </trkpt>
      <trkpt lat="48.69381" lon="1.74845">
        <ele>154.2</ele>
        <time>2015-04-05T10:30:17.000Z</time>
      </trkpt>
      <trkpt lat="48.69379" lon="1.74836">
        <ele>154.3</ele>
        <time>2015-04-05T10:30:21.000Z</time>
      </trkpt>
      <trkpt lat="48.69378" lon="1.74827">
        <ele>154.5</ele>
        <time>2015-04-05T10:30:25.000Z</time>
      </trkpt>
      <trkpt lat="48.69373" lon="1.74808">
        <ele>155.1</ele>
        <time>2015-04-05T10:30:33.000Z</time>
      </trkpt>
      <trkpt lat="48.69367" lon="1.7479">
        <ele>156.2</ele>
        <time>2015-04-05T10:30:41.000Z</time>
      </trkpt>
      <trkpt lat="48.69366" lon="1.74783">
        <ele>156.6</ele>
        <time>2015-04-05T10:30:45.000Z</time>
      </trkpt>
      <trkpt lat="48.69362" lon="1.74769">
        <ele>157.6</ele>
        <time>2015-04-05T10:30:52.000Z</time>
      </trkpt>
      <trkpt lat="48.69357" lon="1.74755">
        <ele>158.8</ele>
        <time>2015-04-05T10:30:59.000Z</time>
      </trkpt>
      <trkpt lat="48.69354" lon="1.74745">
        <ele>159.6</ele>
        <time>2015-04-05T10:31:05.000Z</time>
      </trkpt>
      <trkpt lat="48.69353" lon="1.74741">
        <ele>159.8</ele>
        <time>2015-04-05T10:31:07.000Z</time>
      </trkpt>
      <trkpt lat="48.6935" lon="1.74727">
        <ele>160.7</ele>
        <time>2015-04-05T10:31:14.000Z</time>
      </trkpt>
      <trkpt lat="48.69346" lon="1.74714">
        <ele>161.3</ele>
        <time>2015-04-05T10:31:20.000Z</time>
      </trkpt>
      <trkpt lat="48.69343" lon="1.74703">
        <ele>161.7</ele>
        <time>2015-04-05T10:31:25.000Z</time>
      </trkpt>
      <trkpt lat="48.69338" lon="1.74681">
        <ele>162.5</ele>
        <time>2015-04-05T10:31:36.000Z</time>
      </trkpt>
      <trkpt lat="48.69335" lon="1.74667">
        <ele>163</ele>
        <time>2015-04-05T10:31:44.000Z</time>
      </trkpt>
      <trkpt lat="48.69329" lon="1.74647">
        <ele>163.4</ele>
        <time>2015-04-05T10:31:54.000Z</time>
      </trkpt>
      <trkpt lat="48.69325" lon="1.74631">
        <ele>163.5</ele>
        <time>2015-04-05T10:32:02.000Z</time>
      </trkpt>
      <trkpt lat="48.69323" lon="1.74622">
        <ele>163.5</ele>
        <time>2015-04-05T10:32:07.000Z</time>
      </trkpt>
      <trkpt lat="48.6932" lon="1.7461">
        <ele>163.5</ele>
        <time>2015-04-05T10:32:12.000Z</time>
      </trkpt>
      <trkpt lat="48.69313" lon="1.7459">
        <ele>163.5</ele>
        <time>2015-04-05T10:32:23.000Z</time>
      </trkpt>
      <trkpt lat="48.69312" lon="1.74586">
        <ele>163.5</ele>
        <time>2015-04-05T10:32:25.000Z</time>
      </trkpt>
      <trkpt lat="48.69309" lon="1.74582">
        <ele>163.2</ele>
        <time>2015-04-05T10:32:28.000Z</time>
      </trkpt>
      <trkpt lat="48.69307" lon="1.74571">
        <ele>163.1</ele>
        <time>2015-04-05T10:32:33.000Z</time>
      </trkpt>
      <trkpt lat="48.69305" lon="1.7455">
        <ele>163</ele>
        <time>2015-04-05T10:32:42.000Z</time>
      </trkpt>
      <trkpt lat="48.69302" lon="1.7454">
        <ele>162.9</ele>
        <time>2015-04-05T10:32:47.000Z</time>
      </trkpt>
      <trkpt lat="48.69298" lon="1.74525">
        <ele>162.6</ele>
        <time>2015-04-05T10:32:54.000Z</time>
      </trkpt>
      <trkpt lat="48.69295" lon="1.74515">
        <ele>162.2</ele>
        <time>2015-04-05T10:32:59.000Z</time>
      </trkpt>
      <trkpt lat="48.69292" lon="1.74497">
        <ele>161.5</ele>
        <time>2015-04-05T10:33:07.000Z</time>
      </trkpt>
      <trkpt lat="48.69289" lon="1.74491">
        <ele>161.3</ele>
        <time>2015-04-05T10:33:10.000Z</time>
      </trkpt>
      <trkpt lat="48.69286" lon="1.74473">
        <ele>161</ele>
        <time>2015-04-05T10:33:17.000Z</time>
      </trkpt>
      <trkpt lat="48.69282" lon="1.74456">
        <ele>160.4</ele>
        <time>2015-04-05T10:33:24.000Z</time>
      </trkpt>
      <trkpt lat="48.69278" lon="1.74441">
        <ele>159.9</ele>
        <time>2015-04-05T10:33:30.000Z</time>
      </trkpt>
      <trkpt lat="48.69275" lon="1.7443">
        <ele>159.5</ele>
        <time>2015-04-05T10:33:35.000Z</time>
      </trkpt>
      <trkpt lat="48.69269" lon="1.74407">
        <ele>158.3</ele>
        <time>2015-04-05T10:33:44.000Z</time>
      </trkpt>
      <trkpt lat="48.69266" lon="1.74396">
        <ele>157.5</ele>
        <time>2015-04-05T10:33:48.000Z</time>
      </trkpt>
      <trkpt lat="48.69264" lon="1.74385">
        <ele>156.9</ele>
        <time>2015-04-05T10:33:53.000Z</time>
      </trkpt>
      <trkpt lat="48.69259" lon="1.74368">
        <ele>156.3</ele>
        <time>2015-04-05T10:34:01.000Z</time>
      </trkpt>
      <trkpt lat="48.69258" lon="1.74364">
        <ele>156.1</ele>
        <time>2015-04-05T10:34:04.000Z</time>
      </trkpt>
      <trkpt lat="48.69252" lon="1.74352">
        <ele>155.7</ele>
        <time>2015-04-05T10:34:10.000Z</time>
      </trkpt>
      <trkpt lat="48.6925" lon="1.74344">
        <ele>155.4</ele>
        <time>2015-04-05T10:34:13.000Z</time>
      </trkpt>
      <trkpt lat="48.69249" lon="1.74339">
        <ele>155.2</ele>
        <time>2015-04-05T10:34:15.000Z</time>
      </trkpt>
      <trkpt lat="48.69244" lon="1.74326">
        <ele>154.7</ele>
        <time>2015-04-05T10:34:22.000Z</time>
      </trkpt>
      <trkpt lat="48.69241" lon="1.74308">
        <ele>154.1</ele>
        <time>2015-04-05T10:34:30.000Z</time>
      </trkpt>
      <trkpt lat="48.69239" lon="1.74294">
        <ele>153.8</ele>
        <time>2015-04-05T10:34:36.000Z</time>
      </trkpt>
      <trkpt lat="48.69234" lon="1.74277">
        <ele>153.4</ele>
        <time>2015-04-05T10:34:44.000Z</time>
      </trkpt>
      <trkpt lat="48.69231" lon="1.74263">
        <ele>153.3</ele>
        <time>2015-04-05T10:34:50.000Z</time>
      </trkpt>
      <trkpt lat="48.69229" lon="1.74253">
        <ele>153.2</ele>
        <time>2015-04-05T10:34:54.000Z</time>
      </trkpt>
      <trkpt lat="48.69224" lon="1.74237">
        <ele>153.1</ele>
        <time>2015-04-05T10:35:02.000Z</time>
      </trkpt>
      <trkpt lat="48.6922" lon="1.7422">
        <ele>152.9</ele>
        <time>2015-04-05T10:35:10.000Z</time>
      </trkpt>
      <trkpt lat="48.69216" lon="1.74203">
        <ele>152.9</ele>
        <time>2015-04-05T10:35:18.000Z</time>
      </trkpt>
      <trkpt lat="48.69213" lon="1.74189">
        <ele>153.1</ele>
        <time>2015-04-05T10:35:24.000Z</time>
      </trkpt>
      <trkpt lat="48.69209" lon="1.7418">
        <ele>153.3</ele>
        <time>2015-04-05T10:35:29.000Z</time>
      </trkpt>
      <trkpt lat="48.69208" lon="1.74175">
        <ele>153.3</ele>
        <time>2015-04-05T10:35:31.000Z</time>
      </trkpt>
      <trkpt lat="48.69203" lon="1.74154">
        <ele>153.3</ele>
        <time>2015-04-05T10:35:40.000Z</time>
      </trkpt>
      <trkpt lat="48.69199" lon="1.74142">
        <ele>153.2</ele>
        <time>2015-04-05T10:35:45.000Z</time>
      </trkpt>
      <trkpt lat="48.69197" lon="1.74126">
        <ele>153.5</ele>
        <time>2015-04-05T10:35:52.000Z</time>
      </trkpt>
      <trkpt lat="48.69194" lon="1.74116">
        <ele>153.8</ele>
        <time>2015-04-05T10:35:57.000Z</time>
      </trkpt>
      <trkpt lat="48.69191" lon="1.74104">
        <ele>154</ele>
        <time>2015-04-05T10:36:02.000Z</time>
      </trkpt>
      <trkpt lat="48.69186" lon="1.74087">
        <ele>154</ele>
        <time>2015-04-05T10:36:09.000Z</time>
      </trkpt>
      <trkpt lat="48.69183" lon="1.74068">
        <ele>154.2</ele>
        <time>2015-04-05T10:36:17.000Z</time>
      </trkpt>
      <trkpt lat="48.69178" lon="1.7405">
        <ele>154.6</ele>
        <time>2015-04-05T10:36:25.000Z</time>
      </trkpt>
      <trkpt lat="48.69173" lon="1.74031">
        <ele>154.8</ele>
        <time>2015-04-05T10:36:33.000Z</time>
      </trkpt>
      <trkpt lat="48.69168" lon="1.74014">
        <ele>155.4</ele>
        <time>2015-04-05T10:36:41.000Z</time>
      </trkpt>
      <trkpt lat="48.69164" lon="1.73998">
        <ele>156.2</ele>
        <time>2015-04-05T10:36:48.000Z</time>
      </trkpt>
      <trkpt lat="48.69161" lon="1.73986">
        <ele>156.7</ele>
        <time>2015-04-05T10:36:54.000Z</time>
      </trkpt>
      <trkpt lat="48.6916" lon="1.73984">
        <ele>156.8</ele>
        <time>2015-04-05T10:36:55.000Z</time>
      </trkpt>
      <trkpt lat="48.69153" lon="1.73972">
        <ele>157.5</ele>
        <time>2015-04-05T10:37:01.000Z</time>
      </trkpt>
      <trkpt lat="48.69149" lon="1.73955">
        <ele>157.6</ele>
        <time>2015-04-05T10:37:09.000Z</time>
      </trkpt>
      <trkpt lat="48.69147" lon="1.73942">
        <ele>157.8</ele>
        <time>2015-04-05T10:37:16.000Z</time>
      </trkpt>
      <trkpt lat="48.69141" lon="1.73931">
        <ele>158.4</ele>
        <time>2015-04-05T10:37:22.000Z</time>
      </trkpt>
      <trkpt lat="48.69139" lon="1.73919">
        <ele>158.9</ele>
        <time>2015-04-05T10:37:27.000Z</time>
      </trkpt>
      <trkpt lat="48.69133" lon="1.73897">
        <ele>159.9</ele>
        <time>2015-04-05T10:37:39.000Z</time>
      </trkpt>
      <trkpt lat="48.69133" lon="1.73889">
        <ele>160.2</ele>
        <time>2015-04-05T10:37:43.000Z</time>
      </trkpt>
      <trkpt lat="48.6913" lon="1.73882">
        <ele>160.6</ele>
        <time>2015-04-05T10:37:48.000Z</time>
      </trkpt>
      <trkpt lat="48.69128" lon="1.73871">
        <ele>161.1</ele>
        <time>2015-04-05T10:37:54.000Z</time>
      </trkpt>
      <trkpt lat="48.69124" lon="1.73857">
        <ele>161.7</ele>
        <time>2015-04-05T10:38:01.000Z</time>
      </trkpt>
      <trkpt lat="48.69123" lon="1.73849">
        <ele>162</ele>
        <time>2015-04-05T10:38:06.000Z</time>
      </trkpt>
      <trkpt lat="48.69121" lon="1.73836">
        <ele>162.5</ele>
        <time>2015-04-05T10:38:12.000Z</time>
      </trkpt>
      <trkpt lat="48.69119" lon="1.73826">
        <ele>163</ele>
        <time>2015-04-05T10:38:17.000Z</time>
      </trkpt>
      <trkpt lat="48.69116" lon="1.73817">
        <ele>163.4</ele>
        <time>2015-04-05T10:38:21.000Z</time>
      </trkpt>
      <trkpt lat="48.69113" lon="1.73805">
        <ele>164</ele>
        <time>2015-04-05T10:38:27.000Z</time>
      </trkpt>
      <trkpt lat="48.69109" lon="1.73787">
        <ele>165.3</ele>
        <time>2015-04-05T10:38:36.000Z</time>
      </trkpt>
      <trkpt lat="48.69109" lon="1.73786">
        <ele>165.5</ele>
        <time>2015-04-05T10:38:37.000Z</time>
      </trkpt>
      <trkpt lat="48.69107" lon="1.73778">
        <ele>166</ele>
        <time>2015-04-05T10:38:42.000Z</time>
      </trkpt>
      <trkpt lat="48.69103" lon="1.73766">
        <ele>166.7</ele>
        <time>2015-04-05T10:38:49.000Z</time>
      </trkpt>
      <trkpt lat="48.69099" lon="1.73753">
        <ele>167.4</ele>
        <time>2015-04-05T10:38:55.000Z</time>
      </trkpt>
      <trkpt lat="48.69094" lon="1.73738">
        <ele>167.8</ele>
        <time>2015-04-05T10:39:02.000Z</time>
      </trkpt>
      <trkpt lat="48.69088" lon="1.73727">
        <ele>168</ele>
        <time>2015-04-05T10:39:09.000Z</time>
      </trkpt>
      <trkpt lat="48.69084" lon="1.73719">
        <ele>168.2</ele>
        <time>2015-04-05T10:39:14.000Z</time>
      </trkpt>
      <trkpt lat="48.69085" lon="1.73717">
        <ele>168.2</ele>
        <time>2015-04-05T10:39:18.000Z</time>
      </trkpt>
      <trkpt lat="48.69081" lon="1.7371">
        <ele>168.3</ele>
        <time>2015-04-05T10:39:29.000Z</time>
      </trkpt>
      <trkpt lat="48.6908" lon="1.73697">
        <ele>168.8</ele>
        <time>2015-04-05T10:39:34.000Z</time>
      </trkpt>
      <trkpt lat="48.69079" lon="1.7369">
        <ele>168.8</ele>
        <time>2015-04-05T10:39:38.000Z</time>
      </trkpt>
      <trkpt lat="48.69077" lon="1.73674">
        <ele>168.8</ele>
        <time>2015-04-05T10:39:45.000Z</time>
      </trkpt>
      <trkpt lat="48.69074" lon="1.7366">
        <ele>168.6</ele>
        <time>2015-04-05T10:39:52.000Z</time>
      </trkpt>
      <trkpt lat="48.69071" lon="1.73641">
        <ele>168.6</ele>
        <time>2015-04-05T10:39:59.000Z</time>
      </trkpt>
      <trkpt lat="48.69069" lon="1.7363">
        <ele>168.5</ele>
        <time>2015-04-05T10:40:05.000Z</time>
      </trkpt>
      <trkpt lat="48.69064" lon="1.73622">
        <ele>168.3</ele>
        <time>2015-04-05T10:40:09.000Z</time>
      </trkpt>
      <trkpt lat="48.69059" lon="1.73612">
        <ele>168.1</ele>
        <time>2015-04-05T10:40:15.000Z</time>
      </trkpt>
      <trkpt lat="48.69051" lon="1.73605">
        <ele>167.8</ele>
        <time>2015-04-05T10:40:22.000Z</time>
      </trkpt>
      <trkpt lat="48.69043" lon="1.73604">
        <ele>167.5</ele>
        <time>2015-04-05T10:40:27.000Z</time>
      </trkpt>
      <trkpt lat="48.69033" lon="1.73605">
        <ele>167.2</ele>
        <time>2015-04-05T10:40:32.000Z</time>
      </trkpt>
      <trkpt lat="48.69023" lon="1.73604">
        <ele>166.7</ele>
        <time>2015-04-05T10:40:39.000Z</time>
      </trkpt>
      <trkpt lat="48.69012" lon="1.73602">
        <ele>165.9</ele>
        <time>2015-04-05T10:40:47.000Z</time>
      </trkpt>
      <trkpt lat="48.68998" lon="1.73601">
        <ele>164.9</ele>
        <time>2015-04-05T10:40:56.000Z</time>
      </trkpt>
      <trkpt lat="48.68986" lon="1.73601">
        <ele>164</ele>
        <time>2015-04-05T10:41:04.000Z</time>
      </trkpt>
      <trkpt lat="48.68973" lon="1.736">
        <ele>163</ele>
        <time>2015-04-05T10:41:12.000Z</time>
      </trkpt>
      <trkpt lat="48.6896" lon="1.73597">
        <ele>162.6</ele>
        <time>2015-04-05T10:41:20.000Z</time>
      </trkpt>
      <trkpt lat="48.6895" lon="1.73591">
        <ele>162.2</ele>
        <time>2015-04-05T10:41:27.000Z</time>
      </trkpt>
      <trkpt lat="48.6894" lon="1.73592">
        <ele>161.8</ele>
        <time>2015-04-05T10:41:34.000Z</time>
      </trkpt>
      <trkpt lat="48.6893" lon="1.73591">
        <ele>161.5</ele>
        <time>2015-04-05T10:41:40.000Z</time>
      </trkpt>
      <trkpt lat="48.68918" lon="1.7359">
        <ele>161.1</ele>
        <time>2015-04-05T10:41:47.000Z</time>
      </trkpt>
      <trkpt lat="48.68907" lon="1.73588">
        <ele>160.7</ele>
        <time>2015-04-05T10:41:54.000Z</time>
      </trkpt>
      <trkpt lat="48.68897" lon="1.73587">
        <ele>160.3</ele>
        <time>2015-04-05T10:42:00.000Z</time>
      </trkpt>
      <trkpt lat="48.68888" lon="1.73585">
        <ele>160</ele>
        <time>2015-04-05T10:42:06.000Z</time>
      </trkpt>
      <trkpt lat="48.68873" lon="1.73586">
        <ele>159.4</ele>
        <time>2015-04-05T10:42:15.000Z</time>
      </trkpt>
      <trkpt lat="48.68868" lon="1.73585">
        <ele>159.2</ele>
        <time>2015-04-05T10:42:19.000Z</time>
      </trkpt>
      <trkpt lat="48.68858" lon="1.73584">
        <ele>159</ele>
        <time>2015-04-05T10:42:27.000Z</time>
      </trkpt>
      <trkpt lat="48.68858" lon="1.73584">
        <ele>159</ele>
        <time>2015-04-05T10:42:28.000Z</time>
      </trkpt>
      <trkpt lat="48.68854" lon="1.73587">
        <ele>159</ele>
        <time>2015-04-05T10:42:36.000Z</time>
      </trkpt>
      <trkpt lat="48.68847" lon="1.73586">
        <ele>159</ele>
        <time>2015-04-05T10:42:41.000Z</time>
      </trkpt>
      <trkpt lat="48.68846" lon="1.73585">
        <ele>159</ele>
        <time>2015-04-05T10:42:42.000Z</time>
      </trkpt>
      <trkpt lat="48.68841" lon="1.73585">
        <ele>159</ele>
        <time>2015-04-05T10:42:47.000Z</time>
      </trkpt>
      <trkpt lat="48.68831" lon="1.73583">
        <ele>159</ele>
        <time>2015-04-05T10:42:56.000Z</time>
      </trkpt>
      <trkpt lat="48.68826" lon="1.73583">
        <ele>159</ele>
        <time>2015-04-05T10:43:01.000Z</time>
      </trkpt>
      <trkpt lat="48.68817" lon="1.73582">
        <ele>159</ele>
        <time>2015-04-05T10:43:08.000Z</time>
      </trkpt>
      <trkpt lat="48.6881" lon="1.73581">
        <ele>159.1</ele>
        <time>2015-04-05T10:43:13.000Z</time>
      </trkpt>
      <trkpt lat="48.688" lon="1.7358">
        <ele>159.1</ele>
        <time>2015-04-05T10:43:20.000Z</time>
      </trkpt>
      <trkpt lat="48.68793" lon="1.73579">
        <ele>159.1</ele>
        <time>2015-04-05T10:43:26.000Z</time>
      </trkpt>
      <trkpt lat="48.68789" lon="1.7358">
        <ele>159.1</ele>
        <time>2015-04-05T10:43:29.000Z</time>
      </trkpt>
      <trkpt lat="48.68784" lon="1.73578">
        <ele>159.2</ele>
        <time>2015-04-05T10:43:34.000Z</time>
      </trkpt>
      <trkpt lat="48.68776" lon="1.73576">
        <ele>159.3</ele>
        <time>2015-04-05T10:43:40.000Z</time>
      </trkpt>
      <trkpt lat="48.68767" lon="1.73574">
        <ele>159.6</ele>
        <time>2015-04-05T10:43:46.000Z</time>
      </trkpt>
      <trkpt lat="48.68758" lon="1.73572">
        <ele>159.8</ele>
        <time>2015-04-05T10:43:53.000Z</time>
      </trkpt>
      <trkpt lat="48.68756" lon="1.73574">
        <ele>159.9</ele>
        <time>2015-04-05T10:43:55.000Z</time>
      </trkpt>
      <trkpt lat="48.68746" lon="1.73575">
        <ele>160</ele>
        <time>2015-04-05T10:44:02.000Z</time>
      </trkpt>
      <trkpt lat="48.6874" lon="1.73572">
        <ele>160.1</ele>
        <time>2015-04-05T10:44:07.000Z</time>
      </trkpt>
      <trkpt lat="48.6873" lon="1.73571">
        <ele>160.3</ele>
        <time>2015-04-05T10:44:14.000Z</time>
      </trkpt>
      <trkpt lat="48.68725" lon="1.7357">
        <ele>160.4</ele>
        <time>2015-04-05T10:44:18.000Z</time>
      </trkpt>
      <trkpt lat="48.68719" lon="1.73571">
        <ele>160.4</ele>
        <time>2015-04-05T10:44:23.000Z</time>
      </trkpt>
      <trkpt lat="48.68711" lon="1.73569">
        <ele>160.3</ele>
        <time>2015-04-05T10:44:29.000Z</time>
      </trkpt>
      <trkpt lat="48.6871" lon="1.73569">
        <ele>160.3</ele>
        <time>2015-04-05T10:44:30.000Z</time>
      </trkpt>
      <trkpt lat="48.68698" lon="1.73568">
        <ele>160.1</ele>
        <time>2015-04-05T10:44:38.000Z</time>
      </trkpt>
      <trkpt lat="48.68689" lon="1.73567">
        <ele>159.9</ele>
        <time>2015-04-05T10:44:44.000Z</time>
      </trkpt>
      <trkpt lat="48.68687" lon="1.73565">
        <ele>159.8</ele>
        <time>2015-04-05T10:44:46.000Z</time>
      </trkpt>
      <trkpt lat="48.68681" lon="1.73565">
        <ele>159.7</ele>
        <time>2015-04-05T10:44:50.000Z</time>
      </trkpt>
      <trkpt lat="48.68675" lon="1.73566">
        <ele>159.5</ele>
        <time>2015-04-05T10:44:54.000Z</time>
      </trkpt>
      <trkpt lat="48.68667" lon="1.73564">
        <ele>159.3</ele>
        <time>2015-04-05T10:45:00.000Z</time>
      </trkpt>
      <trkpt lat="48.68655" lon="1.73564">
        <ele>158.5</ele>
        <time>2015-04-05T10:45:09.000Z</time>
      </trkpt>
      <trkpt lat="48.68647" lon="1.73562">
        <ele>158</ele>
        <time>2015-04-05T10:45:15.000Z</time>
      </trkpt>
      <trkpt lat="48.68641" lon="1.7356">
        <ele>157.4</ele>
        <time>2015-04-05T10:45:21.000Z</time>
      </trkpt>
      <trkpt lat="48.68639" lon="1.7356">
        <ele>157.4</ele>
        <time>2015-04-05T10:45:23.000Z</time>
      </trkpt>
      <trkpt lat="48.68631" lon="1.73559">
        <ele>155.7</ele>
        <time>2015-04-05T10:45:30.000Z</time>
      </trkpt>
      <trkpt lat="48.68627" lon="1.73559">
        <ele>154.8</ele>
        <time>2015-04-05T10:45:33.000Z</time>
      </trkpt>
      <trkpt lat="48.68621" lon="1.73558">
        <ele>153.3</ele>
        <time>2015-04-05T10:45:38.000Z</time>
      </trkpt>
      <trkpt lat="48.68619" lon="1.73558">
        <ele>153</ele>
        <time>2015-04-05T10:45:39.000Z</time>
      </trkpt>
      <trkpt lat="48.68612" lon="1.73561">
        <ele>151.8</ele>
        <time>2015-04-05T10:45:44.000Z</time>
      </trkpt>
      <trkpt lat="48.68609" lon="1.73561">
        <ele>151.5</ele>
        <time>2015-04-05T10:45:51.000Z</time>
      </trkpt>
      <trkpt lat="48.68603" lon="1.73558">
        <ele>150.9</ele>
        <time>2015-04-05T10:45:59.000Z</time>
      </trkpt>
      <trkpt lat="48.68598" lon="1.73563">
        <ele>150.9</ele>
        <time>2015-04-05T10:46:04.000Z</time>
      </trkpt>
      <trkpt lat="48.68597" lon="1.73573">
        <ele>151.1</ele>
        <time>2015-04-05T10:46:08.000Z</time>
      </trkpt>
      <trkpt lat="48.68598" lon="1.73583">
        <ele>151.6</ele>
        <time>2015-04-05T10:46:12.000Z</time>
      </trkpt>
      <trkpt lat="48.68594" lon="1.73592">
        <ele>151.7</ele>
        <time>2015-04-05T10:46:17.000Z</time>
      </trkpt>
      <trkpt lat="48.68588" lon="1.73598">
        <ele>151</ele>
        <time>2015-04-05T10:46:22.000Z</time>
      </trkpt>
      <trkpt lat="48.68581" lon="1.73611">
        <ele>150.8</ele>
        <time>2015-04-05T10:46:30.000Z</time>
      </trkpt>
      <trkpt lat="48.68576" lon="1.73622">
        <ele>151.9</ele>
        <time>2015-04-05T10:46:36.000Z</time>
      </trkpt>
      <trkpt lat="48.68575" lon="1.73623">
        <ele>151.9</ele>
        <time>2015-04-05T10:46:37.000Z</time>
      </trkpt>
      <trkpt lat="48.68569" lon="1.73633">
        <ele>151.9</ele>
        <time>2015-04-05T10:46:43.000Z</time>
      </trkpt>
      <trkpt lat="48.68567" lon="1.73639">
        <ele>151.8</ele>
        <time>2015-04-05T10:46:46.000Z</time>
      </trkpt>
      <trkpt lat="48.68562" lon="1.73652">
        <ele>150.7</ele>
        <time>2015-04-05T10:46:53.000Z</time>
      </trkpt>
      <trkpt lat="48.6856" lon="1.73658">
        <ele>150.2</ele>
        <time>2015-04-05T10:46:57.000Z</time>
      </trkpt>
      <trkpt lat="48.68559" lon="1.73668">
        <ele>150.1</ele>
        <time>2015-04-05T10:47:02.000Z</time>
      </trkpt>
      <trkpt lat="48.68559" lon="1.7367">
        <ele>150.1</ele>
        <time>2015-04-05T10:47:03.000Z</time>
      </trkpt>
      <trkpt lat="48.68555" lon="1.73682">
        <ele>150.7</ele>
        <time>2015-04-05T10:47:09.000Z</time>
      </trkpt>
      <trkpt lat="48.6855" lon="1.73694">
        <ele>151.2</ele>
        <time>2015-04-05T10:47:15.000Z</time>
      </trkpt>
      <trkpt lat="48.68546" lon="1.73705">
        <ele>151.2</ele>
        <time>2015-04-05T10:47:20.000Z</time>
      </trkpt>
      <trkpt lat="48.68541" lon="1.73716">
        <ele>150.7</ele>
        <time>2015-04-05T10:47:25.000Z</time>
      </trkpt>
      <trkpt lat="48.6854" lon="1.73719">
        <ele>150.5</ele>
        <time>2015-04-05T10:47:27.000Z</time>
      </trkpt>
      <trkpt lat="48.68533" lon="1.73735">
        <ele>149.7</ele>
        <time>2015-04-05T10:47:35.000Z</time>
      </trkpt>
      <trkpt lat="48.68527" lon="1.73755">
        <ele>149</ele>
        <time>2015-04-05T10:47:44.000Z</time>
      </trkpt>
      <trkpt lat="48.68524" lon="1.73778">
        <ele>148.9</ele>
        <time>2015-04-05T10:47:54.000Z</time>
      </trkpt>
      <trkpt lat="48.68523" lon="1.73791">
        <ele>149.2</ele>
        <time>2015-04-05T10:48:00.000Z</time>
      </trkpt>
      <trkpt lat="48.68522" lon="1.73809">
        <ele>149.7</ele>
        <time>2015-04-05T10:48:08.000Z</time>
      </trkpt>
      <trkpt lat="48.68518" lon="1.73828">
        <ele>149.5</ele>
        <time>2015-04-05T10:48:17.000Z</time>
      </trkpt>
      <trkpt lat="48.68516" lon="1.73834">
        <ele>149.4</ele>
        <time>2015-04-05T10:48:20.000Z</time>
      </trkpt>
      <trkpt lat="48.68513" lon="1.73846">
        <ele>149.4</ele>
        <time>2015-04-05T10:48:26.000Z</time>
      </trkpt>
      <trkpt lat="48.6851" lon="1.73861">
        <ele>149.2</ele>
        <time>2015-04-05T10:48:33.000Z</time>
      </trkpt>
      <trkpt lat="48.68509" lon="1.73875">
        <ele>148.7</ele>
        <time>2015-04-05T10:48:39.000Z</time>
      </trkpt>
      <trkpt lat="48.68508" lon="1.73883">
        <ele>148.3</ele>
        <time>2015-04-05T10:48:43.000Z</time>
      </trkpt>
      <trkpt lat="48.68508" lon="1.73897">
        <ele>148.2</ele>
        <time>2015-04-05T10:48:49.000Z</time>
      </trkpt>
      <trkpt lat="48.68508" lon="1.73911">
        <ele>148</ele>
        <time>2015-04-05T10:48:57.000Z</time>
      </trkpt>
      <trkpt lat="48.6851" lon="1.73923">
        <ele>148.3</ele>
        <time>2015-04-05T10:49:03.000Z</time>
      </trkpt>
      <trkpt lat="48.68513" lon="1.73937">
        <ele>148.6</ele>
        <time>2015-04-05T10:49:09.000Z</time>
      </trkpt>
      <trkpt lat="48.68515" lon="1.73947">
        <ele>148.5</ele>
        <time>2015-04-05T10:49:14.000Z</time>
      </trkpt>
      <trkpt lat="48.68517" lon="1.73959">
        <ele>148.4</ele>
        <time>2015-04-05T10:49:19.000Z</time>
      </trkpt>
      <trkpt lat="48.68518" lon="1.73972">
        <ele>148</ele>
        <time>2015-04-05T10:49:25.000Z</time>
      </trkpt>
      <trkpt lat="48.6852" lon="1.73984">
        <ele>148.2</ele>
        <time>2015-04-05T10:49:30.000Z</time>
      </trkpt>
      <trkpt lat="48.6852" lon="1.73992">
        <ele>148.2</ele>
        <time>2015-04-05T10:49:34.000Z</time>
      </trkpt>
      <trkpt lat="48.68521" lon="1.74004">
        <ele>148.2</ele>
        <time>2015-04-05T10:49:40.000Z</time>
      </trkpt>
      <trkpt lat="48.68524" lon="1.74015">
        <ele>148.1</ele>
        <time>2015-04-05T10:49:45.000Z</time>
      </trkpt>
      <trkpt lat="48.68524" lon="1.74033">
        <ele>147.7</ele>
        <time>2015-04-05T10:49:53.000Z</time>
      </trkpt>
      <trkpt lat="48.68524" lon="1.74044">
        <ele>147.7</ele>
        <time>2015-04-05T10:49:58.000Z</time>
      </trkpt>
      <trkpt lat="48.68525" lon="1.74056">
        <ele>147.8</ele>
        <time>2015-04-05T10:50:04.000Z</time>
      </trkpt>
      <trkpt lat="48.68524" lon="1.74071">
        <ele>148.1</ele>
        <time>2015-04-05T10:50:11.000Z</time>
      </trkpt>
      <trkpt lat="48.68522" lon="1.74086">
        <ele>148.1</ele>
        <time>2015-04-05T10:50:17.000Z</time>
      </trkpt>
      <trkpt lat="48.68521" lon="1.74108">
        <ele>148</ele>
        <time>2015-04-05T10:50:25.000Z</time>
      </trkpt>
      <trkpt lat="48.68525" lon="1.74122">
        <ele>148.2</ele>
        <time>2015-04-05T10:50:31.000Z</time>
      </trkpt>
      <trkpt lat="48.68524" lon="1.74135">
        <ele>147.7</ele>
        <time>2015-04-05T10:50:37.000Z</time>
      </trkpt>
      <trkpt lat="48.68523" lon="1.74152">
        <ele>147.9</ele>
        <time>2015-04-05T10:50:44.000Z</time>
      </trkpt>
      <trkpt lat="48.68521" lon="1.74163">
        <ele>148</ele>
        <time>2015-04-05T10:50:49.000Z</time>
      </trkpt>
      <trkpt lat="48.6852" lon="1.74173">
        <ele>148.1</ele>
        <time>2015-04-05T10:50:54.000Z</time>
      </trkpt>
      <trkpt lat="48.6852" lon="1.74184">
        <ele>148.8</ele>
        <time>2015-04-05T10:50:59.000Z</time>
      </trkpt>
      <trkpt lat="48.68517" lon="1.74198">
        <ele>148.8</ele>
        <time>2015-04-05T10:51:06.000Z</time>
      </trkpt>
      <trkpt lat="48.68516" lon="1.74205">
        <ele>148.7</ele>
        <time>2015-04-05T10:51:10.000Z</time>
      </trkpt>
      <trkpt lat="48.68513" lon="1.74224">
        <ele>148.1</ele>
        <time>2015-04-05T10:51:19.000Z</time>
      </trkpt>
      <trkpt lat="48.68511" lon="1.74236">
        <ele>147.9</ele>
        <time>2015-04-05T10:51:25.000Z</time>
      </trkpt>
      <trkpt lat="48.68511" lon="1.74245">
        <ele>147.9</ele>
        <time>2015-04-05T10:51:31.000Z</time>
      </trkpt>
      <trkpt lat="48.68509" lon="1.74253">
        <ele>147.7</ele>
        <time>2015-04-05T10:51:35.000Z</time>
      </trkpt>
      <trkpt lat="48.68508" lon="1.74265">
        <ele>147.8</ele>
        <time>2015-04-05T10:51:41.000Z</time>
      </trkpt>
      <trkpt lat="48.68508" lon="1.74267">
        <ele>147.8</ele>
        <time>2015-04-05T10:51:42.000Z</time>
      </trkpt>
      <trkpt lat="48.68505" lon="1.74284">
        <ele>147.4</ele>
        <time>2015-04-05T10:51:49.000Z</time>
      </trkpt>
      <trkpt lat="48.685" lon="1.74298">
        <ele>146.8</ele>
        <time>2015-04-05T10:51:55.000Z</time>
      </trkpt>
      <trkpt lat="48.68498" lon="1.74309">
        <ele>146.9</ele>
        <time>2015-04-05T10:52:00.000Z</time>
      </trkpt>
      <trkpt lat="48.68494" lon="1.74324">
        <ele>146.9</ele>
        <time>2015-04-05T10:52:07.000Z</time>
      </trkpt>
      <trkpt lat="48.68493" lon="1.74333">
        <ele>147</ele>
        <time>2015-04-05T10:52:11.000Z</time>
      </trkpt>
      <trkpt lat="48.68491" lon="1.74348">
        <ele>146.7</ele>
        <time>2015-04-05T10:52:19.000Z</time>
      </trkpt>
      <trkpt lat="48.6849" lon="1.74351">
        <ele>146.6</ele>
        <time>2015-04-05T10:52:23.000Z</time>
      </trkpt>
      <trkpt lat="48.68491" lon="1.74359">
        <ele>146.8</ele>
        <time>2015-04-05T10:52:39.000Z</time>
      </trkpt>
      <trkpt lat="48.6849" lon="1.74364">
        <ele>146.4</ele>
        <time>2015-04-05T10:52:43.000Z</time>
      </trkpt>
      <trkpt lat="48.68489" lon="1.74372">
        <ele>145.8</ele>
        <time>2015-04-05T10:52:48.000Z</time>
      </trkpt>
      <trkpt lat="48.6849" lon="1.74384">
        <ele>145.3</ele>
        <time>2015-04-05T10:52:54.000Z</time>
      </trkpt>
      <trkpt lat="48.68491" lon="1.74387">
        <ele>145.2</ele>
        <time>2015-04-05T10:52:56.000Z</time>
      </trkpt>
      <trkpt lat="48.68498" lon="1.74393">
        <ele>145.4</ele>
        <time>2015-04-05T10:53:02.000Z</time>
      </trkpt>
      <trkpt lat="48.68508" lon="1.74397">
        <ele>145</ele>
        <time>2015-04-05T10:53:09.000Z</time>
      </trkpt>
      <trkpt lat="48.68513" lon="1.74395">
        <ele>145</ele>
        <time>2015-04-05T10:53:13.000Z</time>
      </trkpt>
      <trkpt lat="48.68515" lon="1.74394">
        <ele>145</ele>
        <time>2015-04-05T10:53:15.000Z</time>
      </trkpt>
      <trkpt lat="48.68527" lon="1.74386">
        <ele>145.4</ele>
        <time>2015-04-05T10:53:23.000Z</time>
      </trkpt>
      <trkpt lat="48.68528" lon="1.74382">
        <ele>145.8</ele>
        <time>2015-04-05T10:53:25.000Z</time>
      </trkpt>
      <trkpt lat="48.68531" lon="1.74375">
        <ele>146.2</ele>
        <time>2015-04-05T10:53:29.000Z</time>
      </trkpt>
      <trkpt lat="48.68536" lon="1.74358">
        <ele>147</ele>
        <time>2015-04-05T10:53:36.000Z</time>
      </trkpt>
      <trkpt lat="48.68537" lon="1.7435">
        <ele>147.2</ele>
        <time>2015-04-05T10:53:39.000Z</time>
      </trkpt>
      <trkpt lat="48.68542" lon="1.74337">
        <ele>146.9</ele>
        <time>2015-04-05T10:53:46.000Z</time>
      </trkpt>
      <trkpt lat="48.68544" lon="1.74323">
        <ele>147.1</ele>
        <time>2015-04-05T10:53:52.000Z</time>
      </trkpt>
      <trkpt lat="48.68548" lon="1.74314">
        <ele>146.5</ele>
        <time>2015-04-05T10:53:57.000Z</time>
      </trkpt>
      <trkpt lat="48.68549" lon="1.7431">
        <ele>146.4</ele>
        <time>2015-04-05T10:53:59.000Z</time>
      </trkpt>
      <trkpt lat="48.68555" lon="1.74295">
        <ele>146.3</ele>
        <time>2015-04-05T10:54:04.000Z</time>
      </trkpt>
      <trkpt lat="48.68567" lon="1.74274">
        <ele>146.7</ele>
        <time>2015-04-05T10:54:09.000Z</time>
      </trkpt>
      <trkpt lat="48.68582" lon="1.74258">
        <ele>145.1</ele>
        <time>2015-04-05T10:54:14.000Z</time>
      </trkpt>
      <trkpt lat="48.68605" lon="1.74238">
        <ele>145.3</ele>
        <time>2015-04-05T10:54:21.000Z</time>
      </trkpt>
      <trkpt lat="48.68626" lon="1.74224">
        <ele>145.4</ele>
        <time>2015-04-05T10:54:28.000Z</time>
      </trkpt>
      <trkpt lat="48.68645" lon="1.74218">
        <ele>145.1</ele>
        <time>2015-04-05T10:54:32.000Z</time>
      </trkpt>
      <trkpt lat="48.68657" lon="1.74213">
        <ele>145.1</ele>
        <time>2015-04-05T10:54:36.000Z</time>
      </trkpt>
      <trkpt lat="48.68658" lon="1.74212">
        <ele>145.1</ele>
        <time>2015-04-05T10:54:40.000Z</time>
      </trkpt>
      <trkpt lat="48.68663" lon="1.74207">
        <ele>145.1</ele>
        <time>2015-04-05T10:54:47.000Z</time>
      </trkpt>
      <trkpt lat="48.68668" lon="1.74207">
        <ele>145</ele>
        <time>2015-04-05T10:54:52.000Z</time>
      </trkpt>
      <trkpt lat="48.68671" lon="1.74204">
        <ele>145.1</ele>
        <time>2015-04-05T10:54:54.000Z</time>
      </trkpt>
      <trkpt lat="48.68672" lon="1.74201">
        <ele>145.2</ele>
        <time>2015-04-05T10:54:56.000Z</time>
      </trkpt>
      <trkpt lat="48.68678" lon="1.7419">
        <ele>145.7</ele>
        <time>2015-04-05T10:55:02.000Z</time>
      </trkpt>
      <trkpt lat="48.68681" lon="1.74189">
        <ele>145.8</ele>
        <time>2015-04-05T10:55:04.000Z</time>
      </trkpt>
      <trkpt lat="48.68685" lon="1.74188">
        <ele>145.9</ele>
        <time>2015-04-05T10:55:06.000Z</time>
      </trkpt>
      <trkpt lat="48.68699" lon="1.74195">
        <ele>145.8</ele>
        <time>2015-04-05T10:55:14.000Z</time>
      </trkpt>
      <trkpt lat="48.687" lon="1.74196">
        <ele>145.8</ele>
        <time>2015-04-05T10:55:15.000Z</time>
      </trkpt>
      <trkpt lat="48.68704" lon="1.74199">
        <ele>145.5</ele>
        <time>2015-04-05T10:55:19.000Z</time>
      </trkpt>
      <trkpt lat="48.68704" lon="1.74214">
        <ele>145.2</ele>
        <time>2015-04-05T10:55:26.000Z</time>
      </trkpt>
      <trkpt lat="48.68702" lon="1.74226">
        <ele>145.5</ele>
        <time>2015-04-05T10:55:32.000Z</time>
      </trkpt>
      <trkpt lat="48.68699" lon="1.74232">
        <ele>146.1</ele>
        <time>2015-04-05T10:55:35.000Z</time>
      </trkpt>
      <trkpt lat="48.68689" lon="1.74239">
        <ele>146.9</ele>
        <time>2015-04-05T10:55:43.000Z</time>
      </trkpt>
      <trkpt lat="48.6868" lon="1.74241">
        <ele>147</ele>
        <time>2015-04-05T10:55:49.000Z</time>
      </trkpt>
      <trkpt lat="48.68666" lon="1.74245">
        <ele>147.4</ele>
        <time>2015-04-05T10:55:54.000Z</time>
      </trkpt>
      <trkpt lat="48.68648" lon="1.74251">
        <ele>146.2</ele>
        <time>2015-04-05T10:56:00.000Z</time>
      </trkpt>
      <trkpt lat="48.6863" lon="1.7426">
        <ele>146.6</ele>
        <time>2015-04-05T10:56:05.000Z</time>
      </trkpt>
      <trkpt lat="48.68613" lon="1.7427">
        <ele>146.4</ele>
        <time>2015-04-05T10:56:10.000Z</time>
      </trkpt>
      <trkpt lat="48.68596" lon="1.74286">
        <ele>146.2</ele>
        <time>2015-04-05T10:56:16.000Z</time>
      </trkpt>
      <trkpt lat="48.68582" lon="1.74313">
        <ele>146.2</ele>
        <time>2015-04-05T10:56:23.000Z</time>
      </trkpt>
      <trkpt lat="48.68579" lon="1.74345">
        <ele>146.5</ele>
        <time>2015-04-05T10:56:29.000Z</time>
      </trkpt>
      <trkpt lat="48.68577" lon="1.74384">
        <ele>146.9</ele>
        <time>2015-04-05T10:56:36.000Z</time>
      </trkpt>
      <trkpt lat="48.68574" lon="1.74404">
        <ele>147.7</ele>
        <time>2015-04-05T10:56:40.000Z</time>
      </trkpt>
      <trkpt lat="48.68565" lon="1.74421">
        <ele>147.1</ele>
        <time>2015-04-05T10:56:44.000Z</time>
      </trkpt>
      <trkpt lat="48.68551" lon="1.74439">
        <ele>147.5</ele>
        <time>2015-04-05T10:56:49.000Z</time>
      </trkpt>
      <trkpt lat="48.68536" lon="1.74454">
        <ele>147.5</ele>
        <time>2015-04-05T10:56:54.000Z</time>
      </trkpt>
      <trkpt lat="48.68519" lon="1.74464">
        <ele>147.3</ele>
        <time>2015-04-05T10:56:59.000Z</time>
      </trkpt>
      <trkpt lat="48.68497" lon="1.74475">
        <ele>146.3</ele>
        <time>2015-04-05T10:57:05.000Z</time>
      </trkpt>
      <trkpt lat="48.68478" lon="1.74488">
        <ele>147.6</ele>
        <time>2015-04-05T10:57:11.000Z</time>
      </trkpt>
      <trkpt lat="48.6847" lon="1.74494">
        <ele>148.3</ele>
        <time>2015-04-05T10:57:16.000Z</time>
      </trkpt>
      <trkpt lat="48.68469" lon="1.74494">
        <ele>148.2</ele>
        <time>2015-04-05T10:57:17.000Z</time>
      </trkpt>
      <trkpt lat="48.68461" lon="1.74498">
        <ele>147.7</ele>
        <time>2015-04-05T10:57:23.000Z</time>
      </trkpt>
      <trkpt lat="48.68454" lon="1.74502">
        <ele>147.1</ele>
        <time>2015-04-05T10:57:28.000Z</time>
      </trkpt>
      <trkpt lat="48.68453" lon="1.74503">
        <ele>147</ele>
        <time>2015-04-05T10:57:29.000Z</time>
      </trkpt>
      <trkpt lat="48.68449" lon="1.74504">
        <ele>146.9</ele>
        <time>2015-04-05T10:57:32.000Z</time>
      </trkpt>
      <trkpt lat="48.68444" lon="1.74508">
        <ele>146.8</ele>
        <time>2015-04-05T10:57:36.000Z</time>
      </trkpt>
      <trkpt lat="48.68435" lon="1.74512">
        <ele>146.9</ele>
        <time>2015-04-05T10:57:43.000Z</time>
      </trkpt>
      <trkpt lat="48.68426" lon="1.74517">
        <ele>146.8</ele>
        <time>2015-04-05T10:57:50.000Z</time>
      </trkpt>
      <trkpt lat="48.68417" lon="1.74523">
        <ele>146.4</ele>
        <time>2015-04-05T10:57:57.000Z</time>
      </trkpt>
      <trkpt lat="48.68408" lon="1.74531">
        <ele>146.2</ele>
        <time>2015-04-05T10:58:04.000Z</time>
      </trkpt>
      <trkpt lat="48.68406" lon="1.74533">
        <ele>146.2</ele>
        <time>2015-04-05T10:58:06.000Z</time>
      </trkpt>
      <trkpt lat="48.68402" lon="1.74541">
        <ele>146.5</ele>
        <time>2015-04-05T10:58:10.000Z</time>
      </trkpt>
      <trkpt lat="48.68395" lon="1.74555">
        <ele>146.6</ele>
        <time>2015-04-05T10:58:17.000Z</time>
      </trkpt>
      <trkpt lat="48.68391" lon="1.74565">
        <ele>145.6</ele>
        <time>2015-04-05T10:58:22.000Z</time>
      </trkpt>
      <trkpt lat="48.68388" lon="1.74573">
        <ele>145</ele>
        <time>2015-04-05T10:58:26.000Z</time>
      </trkpt>
      <trkpt lat="48.68381" lon="1.74582">
        <ele>144.7</ele>
        <time>2015-04-05T10:58:32.000Z</time>
      </trkpt>
      <trkpt lat="48.68375" lon="1.74594">
        <ele>145.1</ele>
        <time>2015-04-05T10:58:38.000Z</time>
      </trkpt>
      <trkpt lat="48.68372" lon="1.74607">
        <ele>145.3</ele>
        <time>2015-04-05T10:58:44.000Z</time>
      </trkpt>
      <trkpt lat="48.68367" lon="1.74621">
        <ele>145</ele>
        <time>2015-04-05T10:58:51.000Z</time>
      </trkpt>
      <trkpt lat="48.68362" lon="1.74632">
        <ele>144.2</ele>
        <time>2015-04-05T10:58:57.000Z</time>
      </trkpt>
      <trkpt lat="48.68359" lon="1.74639">
        <ele>143.9</ele>
        <time>2015-04-05T10:59:01.000Z</time>
      </trkpt>
      <trkpt lat="48.68357" lon="1.74649">
        <ele>145.4</ele>
        <time>2015-04-05T10:59:06.000Z</time>
      </trkpt>
      <trkpt lat="48.68355" lon="1.74654">
        <ele>145.9</ele>
        <time>2015-04-05T10:59:09.000Z</time>
      </trkpt>
      <trkpt lat="48.68352" lon="1.74666">
        <ele>146.9</ele>
        <time>2015-04-05T10:59:15.000Z</time>
      </trkpt>
      <trkpt lat="48.68346" lon="1.74678">
        <ele>146.6</ele>
        <time>2015-04-05T10:59:22.000Z</time>
      </trkpt>
      <trkpt lat="48.68334" lon="1.74697">
        <ele>144.6</ele>
        <time>2015-04-05T10:59:33.000Z</time>
      </trkpt>
      <trkpt lat="48.68325" lon="1.74711">
        <ele>146.3</ele>
        <time>2015-04-05T10:59:42.000Z</time>
      </trkpt>
      <trkpt lat="48.68317" lon="1.74724">
        <ele>146.2</ele>
        <time>2015-04-05T10:59:50.000Z</time>
      </trkpt>
      <trkpt lat="48.68314" lon="1.7473">
        <ele>146.1</ele>
        <time>2015-04-05T10:59:54.000Z</time>
      </trkpt>
      <trkpt lat="48.68306" lon="1.74735">
        <ele>145</ele>
        <time>2015-04-05T11:00:00.000Z</time>
      </trkpt>
      <trkpt lat="48.683" lon="1.74746">
        <ele>145.7</ele>
        <time>2015-04-05T11:00:07.000Z</time>
      </trkpt>
      <trkpt lat="48.68294" lon="1.74759">
        <ele>146.3</ele>
        <time>2015-04-05T11:00:13.000Z</time>
      </trkpt>
      <trkpt lat="48.68287" lon="1.74772">
        <ele>146.2</ele>
        <time>2015-04-05T11:00:21.000Z</time>
      </trkpt>
      <trkpt lat="48.68282" lon="1.74784">
        <ele>145.5</ele>
        <time>2015-04-05T11:00:28.000Z</time>
      </trkpt>
      <trkpt lat="48.68277" lon="1.74802">
        <ele>144.9</ele>
        <time>2015-04-05T11:00:36.000Z</time>
      </trkpt>
      <trkpt lat="48.68273" lon="1.74819">
        <ele>145.8</ele>
        <time>2015-04-05T11:00:44.000Z</time>
      </trkpt>
      <trkpt lat="48.68267" lon="1.74836">
        <ele>146.3</ele>
        <time>2015-04-05T11:00:52.000Z</time>
      </trkpt>
      <trkpt lat="48.6826" lon="1.74843">
        <ele>145.8</ele>
        <time>2015-04-05T11:00:57.000Z</time>
      </trkpt>
      <trkpt lat="48.68257" lon="1.7485">
        <ele>145.7</ele>
        <time>2015-04-05T11:01:01.000Z</time>
      </trkpt>
      <trkpt lat="48.6825" lon="1.74858">
        <ele>144.8</ele>
        <time>2015-04-05T11:01:08.000Z</time>
      </trkpt>
      <trkpt lat="48.68244" lon="1.74873">
        <ele>144.9</ele>
        <time>2015-04-05T11:01:16.000Z</time>
      </trkpt>
      <trkpt lat="48.68238" lon="1.74892">
        <ele>144.8</ele>
        <time>2015-04-05T11:01:25.000Z</time>
      </trkpt>
      <trkpt lat="48.68234" lon="1.74905">
        <ele>144.6</ele>
        <time>2015-04-05T11:01:30.000Z</time>
      </trkpt>
      <trkpt lat="48.68229" lon="1.7492">
        <ele>144.5</ele>
        <time>2015-04-05T11:01:35.000Z</time>
      </trkpt>
      <trkpt lat="48.68226" lon="1.74936">
        <ele>144.3</ele>
        <time>2015-04-05T11:01:42.000Z</time>
      </trkpt>
      <trkpt lat="48.68222" lon="1.74954">
        <ele>144.7</ele>
        <time>2015-04-05T11:01:49.000Z</time>
      </trkpt>
      <trkpt lat="48.68216" lon="1.74977">
        <ele>145.6</ele>
        <time>2015-04-05T11:01:54.000Z</time>
      </trkpt>
      <trkpt lat="48.68209" lon="1.75002">
        <ele>145.5</ele>
        <time>2015-04-05T11:01:59.000Z</time>
      </trkpt>
      <trkpt lat="48.682" lon="1.75026">
        <ele>144</ele>
        <time>2015-04-05T11:02:04.000Z</time>
      </trkpt>
      <trkpt lat="48.6819" lon="1.75057">
        <ele>146.3</ele>
        <time>2015-04-05T11:02:10.000Z</time>
      </trkpt>
      <trkpt lat="48.6818" lon="1.75083">
        <ele>145.3</ele>
        <time>2015-04-05T11:02:15.000Z</time>
      </trkpt>
      <trkpt lat="48.68164" lon="1.75114">
        <ele>145.2</ele>
        <time>2015-04-05T11:02:21.000Z</time>
      </trkpt>
      <trkpt lat="48.6815" lon="1.75138">
        <ele>146.2</ele>
        <time>2015-04-05T11:02:26.000Z</time>
      </trkpt>
      <trkpt lat="48.68123" lon="1.75179">
        <ele>145.9</ele>
        <time>2015-04-05T11:02:35.000Z</time>
      </trkpt>
      <trkpt lat="48.6812" lon="1.75182">
        <ele>145.9</ele>
        <time>2015-04-05T11:02:36.000Z</time>
      </trkpt>
      <trkpt lat="48.6811" lon="1.752">
        <ele>145.6</ele>
        <time>2015-04-05T11:02:40.000Z</time>
      </trkpt>
      <trkpt lat="48.6809" lon="1.7523">
        <ele>145</ele>
        <time>2015-04-05T11:02:48.000Z</time>
      </trkpt>
      <trkpt lat="48.68081" lon="1.75257">
        <ele>144</ele>
        <time>2015-04-05T11:02:54.000Z</time>
      </trkpt>
      <trkpt lat="48.68075" lon="1.75287">
        <ele>144.2</ele>
        <time>2015-04-05T11:03:00.000Z</time>
      </trkpt>
      <trkpt lat="48.68072" lon="1.75314">
        <ele>144.2</ele>
        <time>2015-04-05T11:03:05.000Z</time>
      </trkpt>
      <trkpt lat="48.68068" lon="1.75352">
        <ele>143.9</ele>
        <time>2015-04-05T11:03:12.000Z</time>
      </trkpt>
      <trkpt lat="48.68061" lon="1.75399">
        <ele>145.9</ele>
        <time>2015-04-05T11:03:20.000Z</time>
      </trkpt>
      <trkpt lat="48.68054" lon="1.75443">
        <ele>146.7</ele>
        <time>2015-04-05T11:03:28.000Z</time>
      </trkpt>
      <trkpt lat="48.68049" lon="1.75472">
        <ele>146</ele>
        <time>2015-04-05T11:03:34.000Z</time>
      </trkpt>
      <trkpt lat="48.68045" lon="1.75497">
        <ele>145.8</ele>
        <time>2015-04-05T11:03:39.000Z</time>
      </trkpt>
      <trkpt lat="48.68046" lon="1.75515">
        <ele>146</ele>
        <time>2015-04-05T11:03:43.000Z</time>
      </trkpt>
      <trkpt lat="48.68048" lon="1.75518">
        <ele>146.2</ele>
        <time>2015-04-05T11:03:44.000Z</time>
      </trkpt>
      <trkpt lat="48.68065" lon="1.75532">
        <ele>148.2</ele>
        <time>2015-04-05T11:03:50.000Z</time>
      </trkpt>
      <trkpt lat="48.68078" lon="1.7554">
        <ele>150.3</ele>
        <time>2015-04-05T11:03:54.000Z</time>
      </trkpt>
      <trkpt lat="48.68103" lon="1.7556">
        <ele>152.6</ele>
        <time>2015-04-05T11:04:02.000Z</time>
      </trkpt>
      <trkpt lat="48.68123" lon="1.75577">
        <ele>152.2</ele>
        <time>2015-04-05T11:04:08.000Z</time>
      </trkpt>
      <trkpt lat="48.68145" lon="1.75592">
        <ele>152.1</ele>
        <time>2015-04-05T11:04:15.000Z</time>
      </trkpt>
      <trkpt lat="48.68171" lon="1.75607">
        <ele>151.2</ele>
        <time>2015-04-05T11:04:23.000Z</time>
      </trkpt>
      <trkpt lat="48.68202" lon="1.75619">
        <ele>150.5</ele>
        <time>2015-04-05T11:04:31.000Z</time>
      </trkpt>
      <trkpt lat="48.68222" lon="1.75625">
        <ele>150</ele>
        <time>2015-04-05T11:04:36.000Z</time>
      </trkpt>
      <trkpt lat="48.68245" lon="1.75632">
        <ele>150</ele>
        <time>2015-04-05T11:04:42.000Z</time>
      </trkpt>
      <trkpt lat="48.68262" lon="1.75636">
        <ele>150</ele>
        <time>2015-04-05T11:04:46.000Z</time>
      </trkpt>
      <trkpt lat="48.68281" lon="1.75641">
        <ele>149.9</ele>
        <time>2015-04-05T11:04:51.000Z</time>
      </trkpt>
      <trkpt lat="48.68312" lon="1.75649">
        <ele>150</ele>
        <time>2015-04-05T11:04:59.000Z</time>
      </trkpt>
      <trkpt lat="48.68336" lon="1.75641">
        <ele>150.1</ele>
        <time>2015-04-05T11:05:05.000Z</time>
      </trkpt>
      <trkpt lat="48.6834" lon="1.75638">
        <ele>150.3</ele>
        <time>2015-04-05T11:05:06.000Z</time>
      </trkpt>
      <trkpt lat="48.68351" lon="1.75631">
        <ele>150.7</ele>
        <time>2015-04-05T11:05:09.000Z</time>
      </trkpt>
      <trkpt lat="48.68364" lon="1.75619">
        <ele>151.1</ele>
        <time>2015-04-05T11:05:13.000Z</time>
      </trkpt>
      <trkpt lat="48.68382" lon="1.7561">
        <ele>151.8</ele>
        <time>2015-04-05T11:05:18.000Z</time>
      </trkpt>
      <trkpt lat="48.68403" lon="1.75595">
        <ele>152</ele>
        <time>2015-04-05T11:05:24.000Z</time>
      </trkpt>
      <trkpt lat="48.68417" lon="1.75589">
        <ele>152</ele>
        <time>2015-04-05T11:05:28.000Z</time>
      </trkpt>
      <trkpt lat="48.68437" lon="1.75578">
        <ele>152.2</ele>
        <time>2015-04-05T11:05:33.000Z</time>
      </trkpt>
      <trkpt lat="48.68452" lon="1.75567">
        <ele>152.6</ele>
        <time>2015-04-05T11:05:38.000Z</time>
      </trkpt>
      <trkpt lat="48.68468" lon="1.75559">
        <ele>152.9</ele>
        <time>2015-04-05T11:05:43.000Z</time>
      </trkpt>
      <trkpt lat="48.68489" lon="1.75547">
        <ele>152.6</ele>
        <time>2015-04-05T11:05:49.000Z</time>
      </trkpt>
      <trkpt lat="48.68495" lon="1.75543">
        <ele>152.5</ele>
        <time>2015-04-05T11:05:51.000Z</time>
      </trkpt>
      <trkpt lat="48.68511" lon="1.75538">
        <ele>152.8</ele>
        <time>2015-04-05T11:05:55.000Z</time>
      </trkpt>
      <trkpt lat="48.68533" lon="1.75529">
        <ele>153</ele>
        <time>2015-04-05T11:06:00.000Z</time>
      </trkpt>
      <trkpt lat="48.6854" lon="1.75525">
        <ele>153</ele>
        <time>2015-04-05T11:06:02.000Z</time>
      </trkpt>
      <trkpt lat="48.6856" lon="1.75513">
        <ele>152.9</ele>
        <time>2015-04-05T11:06:07.000Z</time>
      </trkpt>
      <trkpt lat="48.68574" lon="1.75504">
        <ele>152.9</ele>
        <time>2015-04-05T11:06:10.000Z</time>
      </trkpt>
      <trkpt lat="48.68606" lon="1.75485">
        <ele>153.5</ele>
        <time>2015-04-05T11:06:17.000Z</time>
      </trkpt>
      <trkpt lat="48.68622" lon="1.75479">
        <ele>153.5</ele>
        <time>2015-04-05T11:06:20.000Z</time>
      </trkpt>
      <trkpt lat="48.68647" lon="1.75465">
        <ele>153.5</ele>
        <time>2015-04-05T11:06:24.000Z</time>
      </trkpt>
      <trkpt lat="48.68681" lon="1.75449">
        <ele>154</ele>
        <time>2015-04-05T11:06:30.000Z</time>
      </trkpt>
      <trkpt lat="48.68706" lon="1.75435">
        <ele>154.8</ele>
        <time>2015-04-05T11:06:35.000Z</time>
      </trkpt>
      <trkpt lat="48.68729" lon="1.75424">
        <ele>155</ele>
        <time>2015-04-05T11:06:40.000Z</time>
      </trkpt>
      <trkpt lat="48.68733" lon="1.75422">
        <ele>155</ele>
        <time>2015-04-05T11:06:41.000Z</time>
      </trkpt>
      <trkpt lat="48.68751" lon="1.75414">
        <ele>155</ele>
        <time>2015-04-05T11:06:45.000Z</time>
      </trkpt>
      <trkpt lat="48.68777" lon="1.75397">
        <ele>153.3</ele>
        <time>2015-04-05T11:06:50.000Z</time>
      </trkpt>
      <trkpt lat="48.68793" lon="1.75383">
        <ele>152.9</ele>
        <time>2015-04-05T11:06:52.000Z</time>
      </trkpt>
      <trkpt lat="48.68809" lon="1.75375">
        <ele>152.5</ele>
        <time>2015-04-05T11:06:55.000Z</time>
      </trkpt>
      <trkpt lat="48.68822" lon="1.7537">
        <ele>152.3</ele>
        <time>2015-04-05T11:06:58.000Z</time>
      </trkpt>
      <trkpt lat="48.68844" lon="1.75358">
        <ele>152.4</ele>
        <time>2015-04-05T11:07:03.000Z</time>
      </trkpt>
      <trkpt lat="48.68865" lon="1.75346">
        <ele>152.8</ele>
        <time>2015-04-05T11:07:08.000Z</time>
      </trkpt>
      <trkpt lat="48.68883" lon="1.75337">
        <ele>151.5</ele>
        <time>2015-04-05T11:07:13.000Z</time>
      </trkpt>
      <trkpt lat="48.68903" lon="1.75324">
        <ele>150.1</ele>
        <time>2015-04-05T11:07:19.000Z</time>
      </trkpt>
      <trkpt lat="48.68914" lon="1.75316">
        <ele>149.5</ele>
        <time>2015-04-05T11:07:23.000Z</time>
      </trkpt>
      <trkpt lat="48.68923" lon="1.75312">
        <ele>149.4</ele>
        <time>2015-04-05T11:07:27.000Z</time>
      </trkpt>
      <trkpt lat="48.68933" lon="1.75307">
        <ele>149.6</ele>
        <time>2015-04-05T11:07:32.000Z</time>
      </trkpt>
      <trkpt lat="48.68935" lon="1.75306">
        <ele>149.6</ele>
        <time>2015-04-05T11:07:33.000Z</time>
      </trkpt>
      <trkpt lat="48.68944" lon="1.75298">
        <ele>149.7</ele>
        <time>2015-04-05T11:07:39.000Z</time>
      </trkpt>
      <trkpt lat="48.68945" lon="1.75296">
        <ele>149.6</ele>
        <time>2015-04-05T11:07:40.000Z</time>
      </trkpt>
      <trkpt lat="48.68954" lon="1.75285">
        <ele>148.9</ele>
        <time>2015-04-05T11:07:47.000Z</time>
      </trkpt>
      <trkpt lat="48.68956" lon="1.7528">
        <ele>148.7</ele>
        <time>2015-04-05T11:07:49.000Z</time>
      </trkpt>
      <trkpt lat="48.68967" lon="1.75275">
        <ele>148.2</ele>
        <time>2015-04-05T11:07:55.000Z</time>
      </trkpt>
      <trkpt lat="48.68976" lon="1.7527">
        <ele>148</ele>
        <time>2015-04-05T11:08:00.000Z</time>
      </trkpt>
      <trkpt lat="48.6899" lon="1.7527">
        <ele>148.2</ele>
        <time>2015-04-05T11:08:07.000Z</time>
      </trkpt>
      <trkpt lat="48.68998" lon="1.75271">
        <ele>148.2</ele>
        <time>2015-04-05T11:08:13.000Z</time>
      </trkpt>
      <trkpt lat="48.69006" lon="1.75272">
        <ele>148.6</ele>
        <time>2015-04-05T11:08:19.000Z</time>
      </trkpt>
      <trkpt lat="48.69009" lon="1.75272">
        <ele>148.8</ele>
        <time>2015-04-05T11:08:21.000Z</time>
      </trkpt>
      <trkpt lat="48.69018" lon="1.75281">
        <ele>149.2</ele>
        <time>2015-04-05T11:08:27.000Z</time>
      </trkpt>
      <trkpt lat="48.69026" lon="1.75288">
        <ele>149.5</ele>
        <time>2015-04-05T11:08:32.000Z</time>
      </trkpt>
      <trkpt lat="48.69038" lon="1.75297">
        <ele>149.9</ele>
        <time>2015-04-05T11:08:39.000Z</time>
      </trkpt>
      <trkpt lat="48.69039" lon="1.75298">
        <ele>150</ele>
        <time>2015-04-05T11:08:40.000Z</time>
      </trkpt>
      <trkpt lat="48.69048" lon="1.75306">
        <ele>150.5</ele>
        <time>2015-04-05T11:08:46.000Z</time>
      </trkpt>
      <trkpt lat="48.69056" lon="1.75313">
        <ele>150.5</ele>
        <time>2015-04-05T11:08:51.000Z</time>
      </trkpt>
      <trkpt lat="48.69064" lon="1.75321">
        <ele>150.4</ele>
        <time>2015-04-05T11:08:57.000Z</time>
      </trkpt>
      <trkpt lat="48.69072" lon="1.75327">
        <ele>150.5</ele>
        <time>2015-04-05T11:09:02.000Z</time>
      </trkpt>
      <trkpt lat="48.69077" lon="1.75332">
        <ele>150.6</ele>
        <time>2015-04-05T11:09:06.000Z</time>
      </trkpt>
      <trkpt lat="48.69088" lon="1.75343">
        <ele>150.8</ele>
        <time>2015-04-05T11:09:14.000Z</time>
      </trkpt>
      <trkpt lat="48.69096" lon="1.75351">
        <ele>150.8</ele>
        <time>2015-04-05T11:09:20.000Z</time>
      </trkpt>
      <trkpt lat="48.69102" lon="1.75357">
        <ele>150.8</ele>
        <time>2015-04-05T11:09:24.000Z</time>
      </trkpt>
      <trkpt lat="48.69107" lon="1.75365">
        <ele>150.7</ele>
        <time>2015-04-05T11:09:28.000Z</time>
      </trkpt>
      <trkpt lat="48.69118" lon="1.75374">
        <ele>150.8</ele>
        <time>2015-04-05T11:09:35.000Z</time>
      </trkpt>
      <trkpt lat="48.69129" lon="1.75384">
        <ele>150.8</ele>
        <time>2015-04-05T11:09:43.000Z</time>
      </trkpt>
      <trkpt lat="48.6914" lon="1.75395">
        <ele>150.8</ele>
        <time>2015-04-05T11:09:51.000Z</time>
      </trkpt>
      <trkpt lat="48.69148" lon="1.75404">
        <ele>150.8</ele>
        <time>2015-04-05T11:09:57.000Z</time>
      </trkpt>
      <trkpt lat="48.69156" lon="1.7541">
        <ele>150.8</ele>
        <time>2015-04-05T11:10:02.000Z</time>
      </trkpt>
      <trkpt lat="48.69158" lon="1.75414">
        <ele>150.8</ele>
        <time>2015-04-05T11:10:04.000Z</time>
      </trkpt>
      <trkpt lat="48.69166" lon="1.75421">
        <ele>150.8</ele>
        <time>2015-04-05T11:10:10.000Z</time>
      </trkpt>
      <trkpt lat="48.69168" lon="1.75422">
        <ele>150.8</ele>
        <time>2015-04-05T11:10:11.000Z</time>
      </trkpt>
      <trkpt lat="48.6918" lon="1.75431">
        <ele>150.5</ele>
        <time>2015-04-05T11:10:18.000Z</time>
      </trkpt>
      <trkpt lat="48.69181" lon="1.75432">
        <ele>150.5</ele>
        <time>2015-04-05T11:10:19.000Z</time>
      </trkpt>
      <trkpt lat="48.6919" lon="1.75442">
        <ele>150.1</ele>
        <time>2015-04-05T11:10:27.000Z</time>
      </trkpt>
      <trkpt lat="48.69194" lon="1.75448">
        <ele>150</ele>
        <time>2015-04-05T11:10:31.000Z</time>
      </trkpt>
      <trkpt lat="48.69196" lon="1.7545">
        <ele>150</ele>
        <time>2015-04-05T11:10:32.000Z</time>
      </trkpt>
      <trkpt lat="48.69206" lon="1.75458">
        <ele>150.2</ele>
        <time>2015-04-05T11:10:38.000Z</time>
      </trkpt>
      <trkpt lat="48.69216" lon="1.75466">
        <ele>150.2</ele>
        <time>2015-04-05T11:10:44.000Z</time>
      </trkpt>
      <trkpt lat="48.69222" lon="1.75472">
        <ele>150</ele>
        <time>2015-04-05T11:10:49.000Z</time>
      </trkpt>
      <trkpt lat="48.6923" lon="1.75478">
        <ele>150</ele>
        <time>2015-04-05T11:10:54.000Z</time>
      </trkpt>
      <trkpt lat="48.6924" lon="1.75488">
        <ele>150</ele>
        <time>2015-04-05T11:11:01.000Z</time>
      </trkpt>
      <trkpt lat="48.69248" lon="1.75496">
        <ele>150</ele>
        <time>2015-04-05T11:11:07.000Z</time>
      </trkpt>
      <trkpt lat="48.69254" lon="1.75502">
        <ele>150</ele>
        <time>2015-04-05T11:11:11.000Z</time>
      </trkpt>
      <trkpt lat="48.69255" lon="1.75506">
        <ele>150</ele>
        <time>2015-04-05T11:11:13.000Z</time>
      </trkpt>
      <trkpt lat="48.69263" lon="1.75513">
        <ele>150</ele>
        <time>2015-04-05T11:11:19.000Z</time>
      </trkpt>
      <trkpt lat="48.69266" lon="1.75515">
        <ele>150</ele>
        <time>2015-04-05T11:11:21.000Z</time>
      </trkpt>
      <trkpt lat="48.69272" lon="1.7552">
        <ele>150</ele>
        <time>2015-04-05T11:11:25.000Z</time>
      </trkpt>
      <trkpt lat="48.69279" lon="1.75529">
        <ele>150.1</ele>
        <time>2015-04-05T11:11:31.000Z</time>
      </trkpt>
      <trkpt lat="48.69281" lon="1.75533">
        <ele>150.2</ele>
        <time>2015-04-05T11:11:33.000Z</time>
      </trkpt>
      <trkpt lat="48.69291" lon="1.75539">
        <ele>150.2</ele>
        <time>2015-04-05T11:11:39.000Z</time>
      </trkpt>
      <trkpt lat="48.69297" lon="1.75548">
        <ele>150.2</ele>
        <time>2015-04-05T11:11:45.000Z</time>
      </trkpt>
      <trkpt lat="48.69302" lon="1.75552">
        <ele>150.1</ele>
        <time>2015-04-05T11:11:49.000Z</time>
      </trkpt>
      <trkpt lat="48.69309" lon="1.75559">
        <ele>150.2</ele>
        <time>2015-04-05T11:11:55.000Z</time>
      </trkpt>
      <trkpt lat="48.69318" lon="1.7557">
        <ele>150.7</ele>
        <time>2015-04-05T11:12:01.000Z</time>
      </trkpt>
      <trkpt lat="48.69325" lon="1.75578">
        <ele>150.9</ele>
        <time>2015-04-05T11:12:07.000Z</time>
      </trkpt>
      <trkpt lat="48.69327" lon="1.7558">
        <ele>151</ele>
        <time>2015-04-05T11:12:09.000Z</time>
      </trkpt>
      <trkpt lat="48.6933" lon="1.75583">
        <ele>151</ele>
        <time>2015-04-05T11:12:11.000Z</time>
      </trkpt>
      <trkpt lat="48.69338" lon="1.75586">
        <ele>151.1</ele>
        <time>2015-04-05T11:12:17.000Z</time>
      </trkpt>
      <trkpt lat="48.69349" lon="1.75589">
        <ele>151.2</ele>
        <time>2015-04-05T11:12:24.000Z</time>
      </trkpt>
      <trkpt lat="48.69355" lon="1.75591">
        <ele>151.3</ele>
        <time>2015-04-05T11:12:28.000Z</time>
      </trkpt>
      <trkpt lat="48.69363" lon="1.75593">
        <ele>151.4</ele>
        <time>2015-04-05T11:12:34.000Z</time>
      </trkpt>
      <trkpt lat="48.69367" lon="1.75593">
        <ele>151.5</ele>
        <time>2015-04-05T11:12:36.000Z</time>
      </trkpt>
      <trkpt lat="48.69379" lon="1.75595">
        <ele>151.8</ele>
        <time>2015-04-05T11:12:44.000Z</time>
      </trkpt>
      <trkpt lat="48.69387" lon="1.75598">
        <ele>152</ele>
        <time>2015-04-05T11:12:49.000Z</time>
      </trkpt>
      <trkpt lat="48.69389" lon="1.75599">
        <ele>152</ele>
        <time>2015-04-05T11:12:51.000Z</time>
      </trkpt>
      <trkpt lat="48.69397" lon="1.75601">
        <ele>152.3</ele>
        <time>2015-04-05T11:12:56.000Z</time>
      </trkpt>
      <trkpt lat="48.694" lon="1.75602">
        <ele>152.4</ele>
        <time>2015-04-05T11:12:58.000Z</time>
      </trkpt>
      <trkpt lat="48.6941" lon="1.75602">
        <ele>152.8</ele>
        <time>2015-04-05T11:13:04.000Z</time>
      </trkpt>
      <trkpt lat="48.69412" lon="1.75601">
        <ele>152.8</ele>
        <time>2015-04-05T11:13:05.000Z</time>
      </trkpt>
      <trkpt lat="48.69416" lon="1.75602">
        <ele>153</ele>
        <time>2015-04-05T11:13:07.000Z</time>
      </trkpt>
      <trkpt lat="48.69425" lon="1.75602">
        <ele>153.3</ele>
        <time>2015-04-05T11:13:12.000Z</time>
      </trkpt>
      <trkpt lat="48.69427" lon="1.75602">
        <ele>153.4</ele>
        <time>2015-04-05T11:13:13.000Z</time>
      </trkpt>
      <trkpt lat="48.69441" lon="1.75601">
        <ele>153.9</ele>
        <time>2015-04-05T11:13:21.000Z</time>
      </trkpt>
      <trkpt lat="48.69454" lon="1.75595">
        <ele>154</ele>
        <time>2015-04-05T11:13:28.000Z</time>
      </trkpt>
      <trkpt lat="48.69462" lon="1.75595">
        <ele>154</ele>
        <time>2015-04-05T11:13:33.000Z</time>
      </trkpt>
      <trkpt lat="48.69465" lon="1.75595">
        <ele>154</ele>
        <time>2015-04-05T11:13:35.000Z</time>
      </trkpt>
      <trkpt lat="48.69474" lon="1.75588">
        <ele>154</ele>
        <time>2015-04-05T11:13:40.000Z</time>
      </trkpt>
      <trkpt lat="48.69482" lon="1.75584">
        <ele>154</ele>
        <time>2015-04-05T11:13:45.000Z</time>
      </trkpt>
      <trkpt lat="48.69497" lon="1.75575">
        <ele>154</ele>
        <time>2015-04-05T11:13:54.000Z</time>
      </trkpt>
      <trkpt lat="48.69509" lon="1.7557">
        <ele>154</ele>
        <time>2015-04-05T11:14:02.000Z</time>
      </trkpt>
      <trkpt lat="48.69518" lon="1.75566">
        <ele>154</ele>
        <time>2015-04-05T11:14:08.000Z</time>
      </trkpt>
      <trkpt lat="48.69528" lon="1.75561">
        <ele>154</ele>
        <time>2015-04-05T11:14:15.000Z</time>
      </trkpt>
      <trkpt lat="48.6954" lon="1.75557">
        <ele>154</ele>
        <time>2015-04-05T11:14:22.000Z</time>
      </trkpt>
      <trkpt lat="48.69545" lon="1.75554">
        <ele>154</ele>
        <time>2015-04-05T11:14:26.000Z</time>
      </trkpt>
      <trkpt lat="48.69559" lon="1.75548">
        <ele>154</ele>
        <time>2015-04-05T11:14:35.000Z</time>
      </trkpt>
      <trkpt lat="48.6957" lon="1.75545">
        <ele>154.2</ele>
        <time>2015-04-05T11:14:42.000Z</time>
      </trkpt>
      <trkpt lat="48.69582" lon="1.75541">
        <ele>154.5</ele>
        <time>2015-04-05T11:14:49.000Z</time>
      </trkpt>
      <trkpt lat="48.69589" lon="1.75537">
        <ele>154.7</ele>
        <time>2015-04-05T11:14:53.000Z</time>
      </trkpt>
      <trkpt lat="48.69598" lon="1.75529">
        <ele>155</ele>
        <time>2015-04-05T11:14:59.000Z</time>
      </trkpt>
      <trkpt lat="48.69605" lon="1.75524">
        <ele>155.1</ele>
        <time>2015-04-05T11:15:03.000Z</time>
      </trkpt>
      <trkpt lat="48.69617" lon="1.7552">
        <ele>155.5</ele>
        <time>2015-04-05T11:15:11.000Z</time>
      </trkpt>
      <trkpt lat="48.69625" lon="1.75518">
        <ele>155.9</ele>
        <time>2015-04-05T11:15:17.000Z</time>
      </trkpt>
      <trkpt lat="48.69634" lon="1.75513">
        <ele>156.4</ele>
        <time>2015-04-05T11:15:23.000Z</time>
      </trkpt>
      <trkpt lat="48.69647" lon="1.75507">
        <ele>156.8</ele>
        <time>2015-04-05T11:15:31.000Z</time>
      </trkpt>
      <trkpt lat="48.69656" lon="1.75503">
        <ele>157</ele>
        <time>2015-04-05T11:15:35.000Z</time>
      </trkpt>
      <trkpt lat="48.69666" lon="1.75497">
        <ele>157.1</ele>
        <time>2015-04-05T11:15:40.000Z</time>
      </trkpt>
      <trkpt lat="48.69672" lon="1.75495">
        <ele>157.4</ele>
        <time>2015-04-05T11:15:43.000Z</time>
      </trkpt>
      <trkpt lat="48.69686" lon="1.75489">
        <ele>158.1</ele>
        <time>2015-04-05T11:15:51.000Z</time>
      </trkpt>
      <trkpt lat="48.69697" lon="1.75484">
        <ele>158.6</ele>
        <time>2015-04-05T11:15:58.000Z</time>
      </trkpt>
      <trkpt lat="48.69709" lon="1.7548">
        <ele>158.9</ele>
        <time>2015-04-05T11:16:04.000Z</time>
      </trkpt>
      <trkpt lat="48.69723" lon="1.75472">
        <ele>159</ele>
        <time>2015-04-05T11:16:11.000Z</time>
      </trkpt>
      <trkpt lat="48.69738" lon="1.75466">
        <ele>159.7</ele>
        <time>2015-04-05T11:16:20.000Z</time>
      </trkpt>
      <trkpt lat="48.69754" lon="1.75458">
        <ele>160.1</ele>
        <time>2015-04-05T11:16:31.000Z</time>
      </trkpt>
      <trkpt lat="48.69766" lon="1.75451">
        <ele>160.5</ele>
        <time>2015-04-05T11:16:40.000Z</time>
      </trkpt>
      <trkpt lat="48.69779" lon="1.75448">
        <ele>160.9</ele>
        <time>2015-04-05T11:16:48.000Z</time>
      </trkpt>
      <trkpt lat="48.69789" lon="1.75442">
        <ele>161</ele>
        <time>2015-04-05T11:16:54.000Z</time>
      </trkpt>
      <trkpt lat="48.69799" lon="1.75433">
        <ele>161.3</ele>
        <time>2015-04-05T11:17:00.000Z</time>
      </trkpt>
      <trkpt lat="48.69808" lon="1.75426">
        <ele>161.8</ele>
        <time>2015-04-05T11:17:07.000Z</time>
      </trkpt>
      <trkpt lat="48.69821" lon="1.75422">
        <ele>162.3</ele>
        <time>2015-04-05T11:17:14.000Z</time>
      </trkpt>
      <trkpt lat="48.69834" lon="1.75418">
        <ele>162.9</ele>
        <time>2015-04-05T11:17:23.000Z</time>
      </trkpt>
      <trkpt lat="48.69845" lon="1.75412">
        <ele>163</ele>
        <time>2015-04-05T11:17:30.000Z</time>
      </trkpt>
      <trkpt lat="48.69853" lon="1.75407">
        <ele>163</ele>
        <time>2015-04-05T11:17:36.000Z</time>
      </trkpt>
      <trkpt lat="48.69862" lon="1.75402">
        <ele>163</ele>
        <time>2015-04-05T11:17:42.000Z</time>
      </trkpt>
      <trkpt lat="48.69871" lon="1.75397">
        <ele>163.3</ele>
        <time>2015-04-05T11:17:49.000Z</time>
      </trkpt>
      <trkpt lat="48.69874" lon="1.75396">
        <ele>163.3</ele>
        <time>2015-04-05T11:17:51.000Z</time>
      </trkpt>
      <trkpt lat="48.69876" lon="1.75394">
        <ele>163.4</ele>
        <time>2015-04-05T11:17:53.000Z</time>
      </trkpt>
      <trkpt lat="48.69883" lon="1.75392">
        <ele>163.7</ele>
        <time>2015-04-05T11:17:58.000Z</time>
      </trkpt>
      <trkpt lat="48.69893" lon="1.7539">
        <ele>163.8</ele>
        <time>2015-04-05T11:18:05.000Z</time>
      </trkpt>
      <trkpt lat="48.69894" lon="1.75389">
        <ele>163.8</ele>
        <time>2015-04-05T11:18:06.000Z</time>
      </trkpt>
      <trkpt lat="48.69902" lon="1.75388">
        <ele>163.6</ele>
        <time>2015-04-05T11:18:11.000Z</time>
      </trkpt>
      <trkpt lat="48.69912" lon="1.75383">
        <ele>163.3</ele>
        <time>2015-04-05T11:18:17.000Z</time>
      </trkpt>
      <trkpt lat="48.69917" lon="1.75377">
        <ele>163.4</ele>
        <time>2015-04-05T11:18:21.000Z</time>
      </trkpt>
      <trkpt lat="48.69925" lon="1.75371">
        <ele>163.3</ele>
        <time>2015-04-05T11:18:26.000Z</time>
      </trkpt>
      <trkpt lat="48.69927" lon="1.7537">
        <ele>163.3</ele>
        <time>2015-04-05T11:18:27.000Z</time>
      </trkpt>
      <trkpt lat="48.6994" lon="1.75365">
        <ele>163</ele>
        <time>2015-04-05T11:18:35.000Z</time>
      </trkpt>
      <trkpt lat="48.69945" lon="1.75359">
        <ele>163.1</ele>
        <time>2015-04-05T11:18:39.000Z</time>
      </trkpt>
      <trkpt lat="48.69951" lon="1.75356">
        <ele>163</ele>
        <time>2015-04-05T11:18:43.000Z</time>
      </trkpt>
      <trkpt lat="48.69957" lon="1.75352">
        <ele>162.9</ele>
        <time>2015-04-05T11:18:46.000Z</time>
      </trkpt>
      <trkpt lat="48.69969" lon="1.75344">
        <ele>162.7</ele>
        <time>2015-04-05T11:18:54.000Z</time>
      </trkpt>
      <trkpt lat="48.69979" lon="1.75343">
        <ele>162.6</ele>
        <time>2015-04-05T11:19:00.000Z</time>
      </trkpt>
      <trkpt lat="48.69992" lon="1.75341">
        <ele>162.7</ele>
        <time>2015-04-05T11:19:08.000Z</time>
      </trkpt>
      <trkpt lat="48.70005" lon="1.75335">
        <ele>162.9</ele>
        <time>2015-04-05T11:19:15.000Z</time>
      </trkpt>
      <trkpt lat="48.70019" lon="1.7533">
        <ele>163.1</ele>
        <time>2015-04-05T11:19:23.000Z</time>
      </trkpt>
      <trkpt lat="48.7003" lon="1.75325">
        <ele>163.4</ele>
        <time>2015-04-05T11:19:31.000Z</time>
      </trkpt>
      <trkpt lat="48.70042" lon="1.75319">
        <ele>164</ele>
        <time>2015-04-05T11:19:40.000Z</time>
      </trkpt>
      <trkpt lat="48.7005" lon="1.75314">
        <ele>164.5</ele>
        <time>2015-04-05T11:19:47.000Z</time>
      </trkpt>
      <trkpt lat="48.70065" lon="1.75308">
        <ele>165.3</ele>
        <time>2015-04-05T11:19:57.000Z</time>
      </trkpt>
      <trkpt lat="48.70073" lon="1.75302">
        <ele>165.6</ele>
        <time>2015-04-05T11:20:03.000Z</time>
      </trkpt>
      <trkpt lat="48.70087" lon="1.75295">
        <ele>166.1</ele>
        <time>2015-04-05T11:20:12.000Z</time>
      </trkpt>
      <trkpt lat="48.70095" lon="1.75293">
        <ele>166.4</ele>
        <time>2015-04-05T11:20:18.000Z</time>
      </trkpt>
      <trkpt lat="48.70105" lon="1.75289">
        <ele>166.8</ele>
        <time>2015-04-05T11:20:25.000Z</time>
      </trkpt>
      <trkpt lat="48.70118" lon="1.75285">
        <ele>167.2</ele>
        <time>2015-04-05T11:20:33.000Z</time>
      </trkpt>
      <trkpt lat="48.70129" lon="1.75278">
        <ele>167.6</ele>
        <time>2015-04-05T11:20:41.000Z</time>
      </trkpt>
      <trkpt lat="48.7014" lon="1.75271">
        <ele>168.1</ele>
        <time>2015-04-05T11:20:49.000Z</time>
      </trkpt>
      <trkpt lat="48.70143" lon="1.7527">
        <ele>168.2</ele>
        <time>2015-04-05T11:20:51.000Z</time>
      </trkpt>
      <trkpt lat="48.70148" lon="1.75268">
        <ele>168.3</ele>
        <time>2015-04-05T11:20:56.000Z</time>
      </trkpt>
      <trkpt lat="48.70157" lon="1.75263">
        <ele>168.6</ele>
        <time>2015-04-05T11:21:05.000Z</time>
      </trkpt>
      <trkpt lat="48.70167" lon="1.75256">
        <ele>169</ele>
        <time>2015-04-05T11:21:12.000Z</time>
      </trkpt>
      <trkpt lat="48.70183" lon="1.75251">
        <ele>169</ele>
        <time>2015-04-05T11:21:22.000Z</time>
      </trkpt>
      <trkpt lat="48.70196" lon="1.75245">
        <ele>168.8</ele>
        <time>2015-04-05T11:21:31.000Z</time>
      </trkpt>
      <trkpt lat="48.70206" lon="1.75241">
        <ele>168.8</ele>
        <time>2015-04-05T11:21:38.000Z</time>
      </trkpt>
      <trkpt lat="48.70215" lon="1.75242">
        <ele>168.9</ele>
        <time>2015-04-05T11:21:44.000Z</time>
      </trkpt>
      <trkpt lat="48.70217" lon="1.75242">
        <ele>168.9</ele>
        <time>2015-04-05T11:21:45.000Z</time>
      </trkpt>
      <trkpt lat="48.70229" lon="1.75248">
        <ele>169</ele>
        <time>2015-04-05T11:21:54.000Z</time>
      </trkpt>
      <trkpt lat="48.70237" lon="1.75253">
        <ele>169.1</ele>
        <time>2015-04-05T11:22:00.000Z</time>
      </trkpt>
      <trkpt lat="48.70238" lon="1.75255">
        <ele>169.2</ele>
        <time>2015-04-05T11:22:01.000Z</time>
      </trkpt>
      <trkpt lat="48.70248" lon="1.75264">
        <ele>169.5</ele>
        <time>2015-04-05T11:22:09.000Z</time>
      </trkpt>
      <trkpt lat="48.70255" lon="1.75271">
        <ele>169.8</ele>
        <time>2015-04-05T11:22:14.000Z</time>
      </trkpt>
      <trkpt lat="48.70268" lon="1.7528">
        <ele>170</ele>
        <time>2015-04-05T11:22:22.000Z</time>
      </trkpt>
      <trkpt lat="48.70274" lon="1.75282">
        <ele>170</ele>
        <time>2015-04-05T11:22:26.000Z</time>
      </trkpt>
      <trkpt lat="48.70279" lon="1.75286">
        <ele>170</ele>
        <time>2015-04-05T11:22:29.000Z</time>
      </trkpt>
      <trkpt lat="48.70287" lon="1.75292">
        <ele>170</ele>
        <time>2015-04-05T11:22:35.000Z</time>
      </trkpt>
      <trkpt lat="48.703" lon="1.75305">
        <ele>170</ele>
        <time>2015-04-05T11:22:44.000Z</time>
      </trkpt>
      <trkpt lat="48.70303" lon="1.75308">
        <ele>170.1</ele>
        <time>2015-04-05T11:22:46.000Z</time>
      </trkpt>
      <trkpt lat="48.7031" lon="1.75326">
        <ele>170.9</ele>
        <time>2015-04-05T11:22:55.000Z</time>
      </trkpt>
      <trkpt lat="48.70317" lon="1.75339">
        <ele>171.5</ele>
        <time>2015-04-05T11:23:03.000Z</time>
      </trkpt>
      <trkpt lat="48.70325" lon="1.75349">
        <ele>171.9</ele>
        <time>2015-04-05T11:23:10.000Z</time>
      </trkpt>
      <trkpt lat="48.7033" lon="1.75353">
        <ele>172</ele>
        <time>2015-04-05T11:23:15.000Z</time>
      </trkpt>
      <trkpt lat="48.70333" lon="1.75354">
        <ele>172</ele>
        <time>2015-04-05T11:23:17.000Z</time>
      </trkpt>
      <trkpt lat="48.70339" lon="1.7536">
        <ele>172.2</ele>
        <time>2015-04-05T11:23:22.000Z</time>
      </trkpt>
      <trkpt lat="48.70348" lon="1.75371">
        <ele>172.7</ele>
        <time>2015-04-05T11:23:29.000Z</time>
      </trkpt>
      <trkpt lat="48.70356" lon="1.75379">
        <ele>172.9</ele>
        <time>2015-04-05T11:23:35.000Z</time>
      </trkpt>
      <trkpt lat="48.70357" lon="1.7538">
        <ele>173</ele>
        <time>2015-04-05T11:23:36.000Z</time>
      </trkpt>
      <trkpt lat="48.70364" lon="1.75388">
        <ele>173</ele>
        <time>2015-04-05T11:23:42.000Z</time>
      </trkpt>
      <trkpt lat="48.70368" lon="1.75391">
        <ele>173</ele>
        <time>2015-04-05T11:23:46.000Z</time>
      </trkpt>
      <trkpt lat="48.70376" lon="1.75396">
        <ele>173</ele>
        <time>2015-04-05T11:23:53.000Z</time>
      </trkpt>
      <trkpt lat="48.70379" lon="1.75398">
        <ele>173</ele>
        <time>2015-04-05T11:23:55.000Z</time>
      </trkpt>
      <trkpt lat="48.70383" lon="1.75399">
        <ele>173</ele>
        <time>2015-04-05T11:23:59.000Z</time>
      </trkpt>
      <trkpt lat="48.70394" lon="1.75406">
        <ele>173</ele>
        <time>2015-04-05T11:24:07.000Z</time>
      </trkpt>
      <trkpt lat="48.70401" lon="1.75412">
        <ele>173</ele>
        <time>2015-04-05T11:24:12.000Z</time>
      </trkpt>
      <trkpt lat="48.70408" lon="1.75418">
        <ele>173</ele>
        <time>2015-04-05T11:24:17.000Z</time>
      </trkpt>
      <trkpt lat="48.70418" lon="1.75425">
        <ele>173</ele>
        <time>2015-04-05T11:24:23.000Z</time>
      </trkpt>
      <trkpt lat="48.70423" lon="1.75428">
        <ele>173.1</ele>
        <time>2015-04-05T11:24:26.000Z</time>
      </trkpt>
      <trkpt lat="48.70433" lon="1.75436">
        <ele>173.2</ele>
        <time>2015-04-05T11:24:33.000Z</time>
      </trkpt>
      <trkpt lat="48.70438" lon="1.75439">
        <ele>173.2</ele>
        <time>2015-04-05T11:24:36.000Z</time>
      </trkpt>
      <trkpt lat="48.70446" lon="1.75446">
        <ele>173</ele>
        <time>2015-04-05T11:24:42.000Z</time>
      </trkpt>
      <trkpt lat="48.70455" lon="1.75452">
        <ele>173.4</ele>
        <time>2015-04-05T11:24:49.000Z</time>
      </trkpt>
      <trkpt lat="48.70464" lon="1.75461">
        <ele>173.7</ele>
        <time>2015-04-05T11:24:56.000Z</time>
      </trkpt>
      <trkpt lat="48.70476" lon="1.75473">
        <ele>174</ele>
        <time>2015-04-05T11:25:06.000Z</time>
      </trkpt>
      <trkpt lat="48.70486" lon="1.75484">
        <ele>173.6</ele>
        <time>2015-04-05T11:25:15.000Z</time>
      </trkpt>
      <trkpt lat="48.70498" lon="1.75497">
        <ele>173.1</ele>
        <time>2015-04-05T11:25:24.000Z</time>
      </trkpt>
      <trkpt lat="48.70509" lon="1.75508">
        <ele>173</ele>
        <time>2015-04-05T11:25:33.000Z</time>
      </trkpt>
      <trkpt lat="48.70519" lon="1.75518">
        <ele>173</ele>
        <time>2015-04-05T11:25:41.000Z</time>
      </trkpt>
      <trkpt lat="48.70526" lon="1.75526">
        <ele>173</ele>
        <time>2015-04-05T11:25:47.000Z</time>
      </trkpt>
      <trkpt lat="48.70535" lon="1.75534">
        <ele>173</ele>
        <time>2015-04-05T11:25:55.000Z</time>
      </trkpt>
      <trkpt lat="48.70543" lon="1.75544">
        <ele>173</ele>
        <time>2015-04-05T11:26:02.000Z</time>
      </trkpt>
      <trkpt lat="48.70556" lon="1.75558">
        <ele>173</ele>
        <time>2015-04-05T11:26:11.000Z</time>
      </trkpt>
      <trkpt lat="48.70565" lon="1.75566">
        <ele>173</ele>
        <time>2015-04-05T11:26:18.000Z</time>
      </trkpt>
      <trkpt lat="48.70576" lon="1.75578">
        <ele>173</ele>
        <time>2015-04-05T11:26:27.000Z</time>
      </trkpt>
      <trkpt lat="48.70581" lon="1.75585">
        <ele>173</ele>
        <time>2015-04-05T11:26:32.000Z</time>
      </trkpt>
      <trkpt lat="48.70586" lon="1.7559">
        <ele>172.9</ele>
        <time>2015-04-05T11:26:37.000Z</time>
      </trkpt>
      <trkpt lat="48.70595" lon="1.756">
        <ele>172.6</ele>
        <time>2015-04-05T11:26:44.000Z</time>
      </trkpt>
      <trkpt lat="48.70606" lon="1.75611">
        <ele>172.2</ele>
        <time>2015-04-05T11:26:52.000Z</time>
      </trkpt>
      <trkpt lat="48.70612" lon="1.75621">
        <ele>172.3</ele>
        <time>2015-04-05T11:26:59.000Z</time>
      </trkpt>
      <trkpt lat="48.70614" lon="1.75624">
        <ele>172.5</ele>
        <time>2015-04-05T11:27:01.000Z</time>
      </trkpt>
      <trkpt lat="48.70622" lon="1.75631">
        <ele>172.7</ele>
        <time>2015-04-05T11:27:06.000Z</time>
      </trkpt>
      <trkpt lat="48.70626" lon="1.75637">
        <ele>172.9</ele>
        <time>2015-04-05T11:27:09.000Z</time>
      </trkpt>
      <trkpt lat="48.70629" lon="1.75642">
        <ele>173</ele>
        <time>2015-04-05T11:27:13.000Z</time>
      </trkpt>
      <trkpt lat="48.70631" lon="1.75644">
        <ele>173</ele>
        <time>2015-04-05T11:27:15.000Z</time>
      </trkpt>
      <trkpt lat="48.70636" lon="1.75646">
        <ele>173</ele>
        <time>2015-04-05T11:27:21.000Z</time>
      </trkpt>
      <trkpt lat="48.70637" lon="1.75647">
        <ele>173</ele>
        <time>2015-04-05T11:27:24.000Z</time>
      </trkpt>
      <trkpt lat="48.70646" lon="1.75623">
        <ele>172.5</ele>
        <time>2015-04-05T11:28:08.000Z</time>
      </trkpt>
      <trkpt lat="48.70648" lon="1.75617">
        <ele>172.4</ele>
        <time>2015-04-05T11:28:10.000Z</time>
      </trkpt>
      <trkpt lat="48.70654" lon="1.756">
        <ele>172.6</ele>
        <time>2015-04-05T11:28:20.000Z</time>
      </trkpt>
      <trkpt lat="48.70659" lon="1.75587">
        <ele>172.7</ele>
        <time>2015-04-05T11:28:28.000Z</time>
      </trkpt>
      <trkpt lat="48.70662" lon="1.75582">
        <ele>172.8</ele>
        <time>2015-04-05T11:28:31.000Z</time>
      </trkpt>
      <trkpt lat="48.70669" lon="1.75567">
        <ele>173</ele>
        <time>2015-04-05T11:28:40.000Z</time>
      </trkpt>
      <trkpt lat="48.70675" lon="1.75553">
        <ele>173</ele>
        <time>2015-04-05T11:28:49.000Z</time>
      </trkpt>
      <trkpt lat="48.70678" lon="1.75545">
        <ele>173</ele>
        <time>2015-04-05T11:28:54.000Z</time>
      </trkpt>
      <trkpt lat="48.70683" lon="1.75534">
        <ele>173</ele>
        <time>2015-04-05T11:29:01.000Z</time>
      </trkpt>
      <trkpt lat="48.70685" lon="1.75533">
        <ele>173</ele>
        <time>2015-04-05T11:29:03.000Z</time>
      </trkpt>
      <trkpt lat="48.70688" lon="1.75527">
        <ele>173</ele>
        <time>2015-04-05T11:29:09.000Z</time>
      </trkpt>
      <trkpt lat="48.7069" lon="1.75519">
        <ele>173</ele>
        <time>2015-04-05T11:29:14.000Z</time>
      </trkpt>
      <trkpt lat="48.70691" lon="1.75517">
        <ele>173</ele>
        <time>2015-04-05T11:29:15.000Z</time>
      </trkpt>
      <trkpt lat="48.70696" lon="1.75509">
        <ele>173</ele>
        <time>2015-04-05T11:29:22.000Z</time>
      </trkpt>
      <trkpt lat="48.70697" lon="1.75509">
        <ele>173</ele>
        <time>2015-04-05T11:29:26.000Z</time>
      </trkpt>
      <trkpt lat="48.70697" lon="1.75509">
        <ele>173</ele>
        <time>2015-04-05T11:29:27.000Z</time>
      </trkpt>
      <trkpt lat="48.70698" lon="1.75484">
        <ele>173</ele>
        <time>2015-04-05T11:30:50.000Z</time>
      </trkpt>
      <trkpt lat="48.70701" lon="1.75485">
        <ele>173</ele>
        <time>2015-04-05T11:30:53.000Z</time>
      </trkpt>
      <trkpt lat="48.70701" lon="1.75484">
        <ele>173</ele>
        <time>2015-04-05T11:31:02.000Z</time>
      </trkpt>
      <trkpt lat="48.70702" lon="1.75484">
        <ele>173</ele>
        <time>2015-04-05T11:31:03.000Z</time>
      </trkpt>
      <trkpt lat="48.70702" lon="1.75483">
        <ele>173</ele>
        <time>2015-04-05T11:31:05.000Z</time>
      </trkpt>
    </trkseg>
  </trk>
</gpx>